<?xml version="1.0" encoding="UTF-8" standalone="no" ?>
<gpx xmlns="http://www.topografix.com/GPX/1/1" xmlns:xsi="http://www.w3.org/2001/XMLSchema-instance" xsi:schemaLocation="http://www.topografix.com/GPX/1/1 http://www.topografix.com/GPX/1/1/gpx.xsd" version="1.1" creator="VisuGPX - https://www.visugpx.com">
  <metadata>
    <name>Trace grignan la Belle du 04/01/2018</name>
    <desc><![CDATA[Randonnée à la demi-journée effectuée par 18 membres du SCLapalud ]]></desc>
  </metadata>
  <trk>
    <name><![CDATA[GRIGNA]]></name>
    <trkseg>
      <trkpt lat="44.41974" lon="4.91064">
        <ele>163.56</ele>
        <time>2018-01-04T12:41:42Z</time>
      </trkpt>
      <trkpt lat="44.41961" lon="4.91046">
        <ele>163.56</ele>
        <time>2018-01-04T12:42:04Z</time>
      </trkpt>
      <trkpt lat="44.41953" lon="4.91051">
        <ele>163.56</ele>
        <time>2018-01-04T12:42:31Z</time>
      </trkpt>
      <trkpt lat="44.41962" lon="4.9106">
        <ele>166.93</ele>
        <time>2018-01-04T12:42:49Z</time>
      </trkpt>
      <trkpt lat="44.41963" lon="4.91059">
        <ele>169.33</ele>
        <time>2018-01-04T12:42:53Z</time>
      </trkpt>
      <trkpt lat="44.41963" lon="4.91062">
        <ele>172.21</ele>
        <time>2018-01-04T12:43:00Z</time>
      </trkpt>
      <trkpt lat="44.41963" lon="4.91063">
        <ele>172.69</ele>
        <time>2018-01-04T12:43:01Z</time>
      </trkpt>
      <trkpt lat="44.41963" lon="4.91061">
        <ele>175.1</ele>
        <time>2018-01-04T12:43:23Z</time>
      </trkpt>
      <trkpt lat="44.41959" lon="4.91058">
        <ele>178.46</ele>
        <time>2018-01-04T12:43:39Z</time>
      </trkpt>
      <trkpt lat="44.4196" lon="4.9106">
        <ele>180.87</ele>
        <time>2018-01-04T12:43:52Z</time>
      </trkpt>
      <trkpt lat="44.41961" lon="4.91057">
        <ele>182.79</ele>
        <time>2018-01-04T12:44:03Z</time>
      </trkpt>
      <trkpt lat="44.41964" lon="4.91049">
        <ele>184.71</ele>
        <time>2018-01-04T12:44:16Z</time>
      </trkpt>
      <trkpt lat="44.41969" lon="4.91049">
        <ele>184.71</ele>
        <time>2018-01-04T12:44:30Z</time>
      </trkpt>
      <trkpt lat="44.41975" lon="4.91045">
        <ele>184.71</ele>
        <time>2018-01-04T12:44:42Z</time>
      </trkpt>
      <trkpt lat="44.41985" lon="4.91034">
        <ele>184.71</ele>
        <time>2018-01-04T12:44:55Z</time>
      </trkpt>
      <trkpt lat="44.41996" lon="4.91026">
        <ele>184.71</ele>
        <time>2018-01-04T12:45:10Z</time>
      </trkpt>
      <trkpt lat="44.42002" lon="4.91018">
        <ele>184.71</ele>
        <time>2018-01-04T12:45:20Z</time>
      </trkpt>
      <trkpt lat="44.4201" lon="4.91011">
        <ele>185.19</ele>
        <time>2018-01-04T12:45:27Z</time>
      </trkpt>
      <trkpt lat="44.42015" lon="4.91005">
        <ele>185.67</ele>
        <time>2018-01-04T12:45:33Z</time>
      </trkpt>
      <trkpt lat="44.42026" lon="4.9099">
        <ele>186.63</ele>
        <time>2018-01-04T12:45:48Z</time>
      </trkpt>
      <trkpt lat="44.4203" lon="4.90982">
        <ele>187.59</ele>
        <time>2018-01-04T12:45:59Z</time>
      </trkpt>
      <trkpt lat="44.42038" lon="4.90974">
        <ele>188.56</ele>
        <time>2018-01-04T12:46:10Z</time>
      </trkpt>
      <trkpt lat="44.42043" lon="4.90967">
        <ele>188.56</ele>
        <time>2018-01-04T12:46:20Z</time>
      </trkpt>
      <trkpt lat="44.42048" lon="4.90959">
        <ele>189.52</ele>
        <time>2018-01-04T12:46:30Z</time>
      </trkpt>
      <trkpt lat="44.42046" lon="4.90947">
        <ele>190</ele>
        <time>2018-01-04T12:46:41Z</time>
      </trkpt>
      <trkpt lat="44.42041" lon="4.90935">
        <ele>191.44</ele>
        <time>2018-01-04T12:46:55Z</time>
      </trkpt>
      <trkpt lat="44.42031" lon="4.90918">
        <ele>192.88</ele>
        <time>2018-01-04T12:47:11Z</time>
      </trkpt>
      <trkpt lat="44.4203" lon="4.90915">
        <ele>192.88</ele>
        <time>2018-01-04T12:47:14Z</time>
      </trkpt>
      <trkpt lat="44.42026" lon="4.90907">
        <ele>193.36</ele>
        <time>2018-01-04T12:47:21Z</time>
      </trkpt>
      <trkpt lat="44.4202" lon="4.90888">
        <ele>194.32</ele>
        <time>2018-01-04T12:47:34Z</time>
      </trkpt>
      <trkpt lat="44.42018" lon="4.90864">
        <ele>194.32</ele>
        <time>2018-01-04T12:47:49Z</time>
      </trkpt>
      <trkpt lat="44.4202" lon="4.90866">
        <ele>194.32</ele>
        <time>2018-01-04T12:47:53Z</time>
      </trkpt>
      <trkpt lat="44.42028" lon="4.90868">
        <ele>194.32</ele>
        <time>2018-01-04T12:48:01Z</time>
      </trkpt>
      <trkpt lat="44.42041" lon="4.90871">
        <ele>194.32</ele>
        <time>2018-01-04T12:48:16Z</time>
      </trkpt>
      <trkpt lat="44.42052" lon="4.9087">
        <ele>194.32</ele>
        <time>2018-01-04T12:48:26Z</time>
      </trkpt>
      <trkpt lat="44.42074" lon="4.90861">
        <ele>194.8</ele>
        <time>2018-01-04T12:48:48Z</time>
      </trkpt>
      <trkpt lat="44.42091" lon="4.90855">
        <ele>194.8</ele>
        <time>2018-01-04T12:49:05Z</time>
      </trkpt>
      <trkpt lat="44.42097" lon="4.90859">
        <ele>193.36</ele>
        <time>2018-01-04T12:49:12Z</time>
      </trkpt>
      <trkpt lat="44.4211" lon="4.90864">
        <ele>192.4</ele>
        <time>2018-01-04T12:49:28Z</time>
      </trkpt>
      <trkpt lat="44.42119" lon="4.90867">
        <ele>191.92</ele>
        <time>2018-01-04T12:49:36Z</time>
      </trkpt>
      <trkpt lat="44.42121" lon="4.90868">
        <ele>191.92</ele>
        <time>2018-01-04T12:49:38Z</time>
      </trkpt>
      <trkpt lat="44.42135" lon="4.90885">
        <ele>190.96</ele>
        <time>2018-01-04T12:49:53Z</time>
      </trkpt>
      <trkpt lat="44.42151" lon="4.90894">
        <ele>190</ele>
        <time>2018-01-04T12:50:08Z</time>
      </trkpt>
      <trkpt lat="44.4216" lon="4.90899">
        <ele>190</ele>
        <time>2018-01-04T12:50:16Z</time>
      </trkpt>
      <trkpt lat="44.4218" lon="4.90913">
        <ele>189.52</ele>
        <time>2018-01-04T12:50:35Z</time>
      </trkpt>
      <trkpt lat="44.42183" lon="4.90916">
        <ele>189.04</ele>
        <time>2018-01-04T12:50:38Z</time>
      </trkpt>
      <trkpt lat="44.42196" lon="4.90927">
        <ele>188.56</ele>
        <time>2018-01-04T12:50:54Z</time>
      </trkpt>
      <trkpt lat="44.42211" lon="4.90942">
        <ele>188.56</ele>
        <time>2018-01-04T12:51:12Z</time>
      </trkpt>
      <trkpt lat="44.42225" lon="4.90953">
        <ele>188.08</ele>
        <time>2018-01-04T12:51:27Z</time>
      </trkpt>
      <trkpt lat="44.42226" lon="4.90953">
        <ele>188.08</ele>
        <time>2018-01-04T12:51:28Z</time>
      </trkpt>
      <trkpt lat="44.42244" lon="4.90959">
        <ele>189.04</ele>
        <time>2018-01-04T12:51:45Z</time>
      </trkpt>
      <trkpt lat="44.42263" lon="4.90964">
        <ele>190.96</ele>
        <time>2018-01-04T12:52:01Z</time>
      </trkpt>
      <trkpt lat="44.42281" lon="4.90966">
        <ele>191.44</ele>
        <time>2018-01-04T12:52:17Z</time>
      </trkpt>
      <trkpt lat="44.42302" lon="4.90966">
        <ele>193.36</ele>
        <time>2018-01-04T12:52:38Z</time>
      </trkpt>
      <trkpt lat="44.42316" lon="4.90975">
        <ele>195.28</ele>
        <time>2018-01-04T12:52:54Z</time>
      </trkpt>
      <trkpt lat="44.42331" lon="4.9098">
        <ele>198.65</ele>
        <time>2018-01-04T12:53:11Z</time>
      </trkpt>
      <trkpt lat="44.42338" lon="4.90993">
        <ele>201.05</ele>
        <time>2018-01-04T12:53:27Z</time>
      </trkpt>
      <trkpt lat="44.42338" lon="4.90995">
        <ele>201.53</ele>
        <time>2018-01-04T12:53:29Z</time>
      </trkpt>
      <trkpt lat="44.42343" lon="4.91017">
        <ele>203.46</ele>
        <time>2018-01-04T12:53:46Z</time>
      </trkpt>
      <trkpt lat="44.42349" lon="4.91045">
        <ele>203.94</ele>
        <time>2018-01-04T12:54:06Z</time>
      </trkpt>
      <trkpt lat="44.42356" lon="4.91067">
        <ele>203.94</ele>
        <time>2018-01-04T12:54:22Z</time>
      </trkpt>
      <trkpt lat="44.42376" lon="4.91076">
        <ele>204.42</ele>
        <time>2018-01-04T12:54:41Z</time>
      </trkpt>
      <trkpt lat="44.42381" lon="4.91078">
        <ele>204.42</ele>
        <time>2018-01-04T12:54:47Z</time>
      </trkpt>
      <trkpt lat="44.42398" lon="4.91088">
        <ele>204.42</ele>
        <time>2018-01-04T12:55:04Z</time>
      </trkpt>
      <trkpt lat="44.4241" lon="4.91095">
        <ele>204.42</ele>
        <time>2018-01-04T12:55:16Z</time>
      </trkpt>
      <trkpt lat="44.42426" lon="4.91115">
        <ele>204.9</ele>
        <time>2018-01-04T12:55:34Z</time>
      </trkpt>
      <trkpt lat="44.4243" lon="4.91126">
        <ele>205.38</ele>
        <time>2018-01-04T12:55:43Z</time>
      </trkpt>
      <trkpt lat="44.42438" lon="4.91148">
        <ele>205.38</ele>
        <time>2018-01-04T12:55:57Z</time>
      </trkpt>
      <trkpt lat="44.42439" lon="4.91154">
        <ele>205.86</ele>
        <time>2018-01-04T12:56:02Z</time>
      </trkpt>
      <trkpt lat="44.42447" lon="4.91175">
        <ele>206.34</ele>
        <time>2018-01-04T12:56:17Z</time>
      </trkpt>
      <trkpt lat="44.42464" lon="4.91182">
        <ele>206.82</ele>
        <time>2018-01-04T12:56:33Z</time>
      </trkpt>
      <trkpt lat="44.42484" lon="4.91186">
        <ele>207.78</ele>
        <time>2018-01-04T12:56:52Z</time>
      </trkpt>
      <trkpt lat="44.42499" lon="4.91191">
        <ele>208.26</ele>
        <time>2018-01-04T12:57:07Z</time>
      </trkpt>
      <trkpt lat="44.42515" lon="4.91198">
        <ele>208.74</ele>
        <time>2018-01-04T12:57:22Z</time>
      </trkpt>
      <trkpt lat="44.42526" lon="4.91203">
        <ele>209.22</ele>
        <time>2018-01-04T12:57:34Z</time>
      </trkpt>
      <trkpt lat="44.42529" lon="4.91205">
        <ele>209.22</ele>
        <time>2018-01-04T12:57:38Z</time>
      </trkpt>
      <trkpt lat="44.42533" lon="4.91208">
        <ele>209.7</ele>
        <time>2018-01-04T12:57:43Z</time>
      </trkpt>
      <trkpt lat="44.42544" lon="4.91213">
        <ele>210.67</ele>
        <time>2018-01-04T12:57:57Z</time>
      </trkpt>
      <trkpt lat="44.4256" lon="4.91222">
        <ele>212.11</ele>
        <time>2018-01-04T12:58:12Z</time>
      </trkpt>
      <trkpt lat="44.42577" lon="4.91231">
        <ele>213.55</ele>
        <time>2018-01-04T12:58:29Z</time>
      </trkpt>
      <trkpt lat="44.42591" lon="4.91234">
        <ele>214.99</ele>
        <time>2018-01-04T12:58:42Z</time>
      </trkpt>
      <trkpt lat="44.42605" lon="4.91238">
        <ele>215.95</ele>
        <time>2018-01-04T12:58:57Z</time>
      </trkpt>
      <trkpt lat="44.42622" lon="4.91249">
        <ele>216.43</ele>
        <time>2018-01-04T12:59:15Z</time>
      </trkpt>
      <trkpt lat="44.42641" lon="4.91263">
        <ele>217.4</ele>
        <time>2018-01-04T12:59:32Z</time>
      </trkpt>
      <trkpt lat="44.42662" lon="4.91276">
        <ele>217.4</ele>
        <time>2018-01-04T12:59:52Z</time>
      </trkpt>
      <trkpt lat="44.42678" lon="4.91285">
        <ele>217.4</ele>
        <time>2018-01-04T13:00:09Z</time>
      </trkpt>
      <trkpt lat="44.42693" lon="4.91295">
        <ele>217.4</ele>
        <time>2018-01-04T13:00:23Z</time>
      </trkpt>
      <trkpt lat="44.42699" lon="4.913">
        <ele>217.88</ele>
        <time>2018-01-04T13:00:31Z</time>
      </trkpt>
      <trkpt lat="44.42702" lon="4.91302">
        <ele>217.88</ele>
        <time>2018-01-04T13:00:34Z</time>
      </trkpt>
      <trkpt lat="44.42715" lon="4.91316">
        <ele>218.36</ele>
        <time>2018-01-04T13:00:48Z</time>
      </trkpt>
      <trkpt lat="44.42722" lon="4.91326">
        <ele>218.36</ele>
        <time>2018-01-04T13:00:59Z</time>
      </trkpt>
      <trkpt lat="44.42739" lon="4.91343">
        <ele>218.84</ele>
        <time>2018-01-04T13:01:17Z</time>
      </trkpt>
      <trkpt lat="44.42746" lon="4.91351">
        <ele>218.84</ele>
        <time>2018-01-04T13:01:26Z</time>
      </trkpt>
      <trkpt lat="44.42747" lon="4.91353">
        <ele>218.84</ele>
        <time>2018-01-04T13:01:28Z</time>
      </trkpt>
      <trkpt lat="44.42766" lon="4.91368">
        <ele>218.84</ele>
        <time>2018-01-04T13:01:45Z</time>
      </trkpt>
      <trkpt lat="44.42779" lon="4.9138">
        <ele>219.32</ele>
        <time>2018-01-04T13:01:59Z</time>
      </trkpt>
      <trkpt lat="44.42792" lon="4.91392">
        <ele>219.32</ele>
        <time>2018-01-04T13:02:13Z</time>
      </trkpt>
      <trkpt lat="44.42804" lon="4.91406">
        <ele>219.8</ele>
        <time>2018-01-04T13:02:29Z</time>
      </trkpt>
      <trkpt lat="44.42815" lon="4.91422">
        <ele>219.8</ele>
        <time>2018-01-04T13:02:44Z</time>
      </trkpt>
      <trkpt lat="44.42816" lon="4.91423">
        <ele>219.8</ele>
        <time>2018-01-04T13:02:45Z</time>
      </trkpt>
      <trkpt lat="44.42825" lon="4.91435">
        <ele>220.28</ele>
        <time>2018-01-04T13:02:58Z</time>
      </trkpt>
      <trkpt lat="44.42829" lon="4.91447">
        <ele>220.28</ele>
        <time>2018-01-04T13:03:11Z</time>
      </trkpt>
      <trkpt lat="44.4283" lon="4.91451">
        <ele>220.28</ele>
        <time>2018-01-04T13:03:14Z</time>
      </trkpt>
      <trkpt lat="44.42835" lon="4.91475">
        <ele>220.28</ele>
        <time>2018-01-04T13:03:30Z</time>
      </trkpt>
      <trkpt lat="44.42836" lon="4.91476">
        <ele>220.28</ele>
        <time>2018-01-04T13:03:32Z</time>
      </trkpt>
      <trkpt lat="44.42837" lon="4.91483">
        <ele>220.28</ele>
        <time>2018-01-04T13:03:36Z</time>
      </trkpt>
      <trkpt lat="44.42843" lon="4.91507">
        <ele>220.28</ele>
        <time>2018-01-04T13:03:54Z</time>
      </trkpt>
      <trkpt lat="44.42846" lon="4.91526">
        <ele>220.28</ele>
        <time>2018-01-04T13:04:06Z</time>
      </trkpt>
      <trkpt lat="44.4285" lon="4.91541">
        <ele>220.28</ele>
        <time>2018-01-04T13:04:17Z</time>
      </trkpt>
      <trkpt lat="44.42852" lon="4.91549">
        <ele>220.28</ele>
        <time>2018-01-04T13:04:22Z</time>
      </trkpt>
      <trkpt lat="44.42858" lon="4.91577">
        <ele>220.28</ele>
        <time>2018-01-04T13:04:40Z</time>
      </trkpt>
      <trkpt lat="44.42858" lon="4.9158">
        <ele>220.28</ele>
        <time>2018-01-04T13:04:42Z</time>
      </trkpt>
      <trkpt lat="44.42866" lon="4.91604">
        <ele>220.28</ele>
        <time>2018-01-04T13:04:58Z</time>
      </trkpt>
      <trkpt lat="44.42872" lon="4.91624">
        <ele>220.28</ele>
        <time>2018-01-04T13:05:12Z</time>
      </trkpt>
      <trkpt lat="44.42875" lon="4.91638">
        <ele>220.76</ele>
        <time>2018-01-04T13:05:22Z</time>
      </trkpt>
      <trkpt lat="44.42882" lon="4.91659">
        <ele>220.76</ele>
        <time>2018-01-04T13:05:36Z</time>
      </trkpt>
      <trkpt lat="44.4289" lon="4.91681">
        <ele>220.76</ele>
        <time>2018-01-04T13:05:52Z</time>
      </trkpt>
      <trkpt lat="44.42897" lon="4.91705">
        <ele>221.24</ele>
        <time>2018-01-04T13:06:08Z</time>
      </trkpt>
      <trkpt lat="44.42904" lon="4.91728">
        <ele>221.24</ele>
        <time>2018-01-04T13:06:24Z</time>
      </trkpt>
      <trkpt lat="44.42909" lon="4.91749">
        <ele>221.24</ele>
        <time>2018-01-04T13:06:38Z</time>
      </trkpt>
      <trkpt lat="44.42916" lon="4.91771">
        <ele>221.24</ele>
        <time>2018-01-04T13:06:53Z</time>
      </trkpt>
      <trkpt lat="44.42919" lon="4.91781">
        <ele>221.24</ele>
        <time>2018-01-04T13:07:01Z</time>
      </trkpt>
      <trkpt lat="44.42922" lon="4.91786">
        <ele>221.24</ele>
        <time>2018-01-04T13:07:05Z</time>
      </trkpt>
      <trkpt lat="44.42925" lon="4.91793">
        <ele>221.24</ele>
        <time>2018-01-04T13:07:09Z</time>
      </trkpt>
      <trkpt lat="44.42933" lon="4.91814">
        <ele>221.24</ele>
        <time>2018-01-04T13:07:23Z</time>
      </trkpt>
      <trkpt lat="44.42941" lon="4.91834">
        <ele>221.72</ele>
        <time>2018-01-04T13:07:39Z</time>
      </trkpt>
      <trkpt lat="44.4295" lon="4.91855">
        <ele>221.72</ele>
        <time>2018-01-04T13:07:55Z</time>
      </trkpt>
      <trkpt lat="44.42961" lon="4.91877">
        <ele>222.68</ele>
        <time>2018-01-04T13:08:12Z</time>
      </trkpt>
      <trkpt lat="44.42971" lon="4.91891">
        <ele>223.16</ele>
        <time>2018-01-04T13:08:25Z</time>
      </trkpt>
      <trkpt lat="44.42982" lon="4.91911">
        <ele>223.64</ele>
        <time>2018-01-04T13:08:41Z</time>
      </trkpt>
      <trkpt lat="44.42991" lon="4.91931">
        <ele>223.64</ele>
        <time>2018-01-04T13:08:57Z</time>
      </trkpt>
      <trkpt lat="44.43001" lon="4.91952">
        <ele>223.64</ele>
        <time>2018-01-04T13:09:13Z</time>
      </trkpt>
      <trkpt lat="44.43007" lon="4.91968">
        <ele>223.64</ele>
        <time>2018-01-04T13:09:29Z</time>
      </trkpt>
      <trkpt lat="44.43007" lon="4.91968">
        <ele>224.12</ele>
        <time>2018-01-04T13:09:40Z</time>
      </trkpt>
      <trkpt lat="44.43008" lon="4.91967">
        <ele>224.12</ele>
        <time>2018-01-04T13:09:53Z</time>
      </trkpt>
      <trkpt lat="44.43008" lon="4.91968">
        <ele>224.12</ele>
        <time>2018-01-04T13:10:08Z</time>
      </trkpt>
      <trkpt lat="44.43008" lon="4.91969">
        <ele>224.12</ele>
        <time>2018-01-04T13:10:38Z</time>
      </trkpt>
      <trkpt lat="44.43007" lon="4.91972">
        <ele>224.12</ele>
        <time>2018-01-04T13:10:55Z</time>
      </trkpt>
      <trkpt lat="44.43006" lon="4.91977">
        <ele>224.12</ele>
        <time>2018-01-04T13:11:02Z</time>
      </trkpt>
      <trkpt lat="44.43012" lon="4.91997">
        <ele>224.12</ele>
        <time>2018-01-04T13:11:16Z</time>
      </trkpt>
      <trkpt lat="44.4302" lon="4.92014">
        <ele>224.12</ele>
        <time>2018-01-04T13:11:30Z</time>
      </trkpt>
      <trkpt lat="44.43025" lon="4.92031">
        <ele>224.12</ele>
        <time>2018-01-04T13:11:44Z</time>
      </trkpt>
      <trkpt lat="44.4303" lon="4.92049">
        <ele>224.12</ele>
        <time>2018-01-04T13:11:57Z</time>
      </trkpt>
      <trkpt lat="44.4304" lon="4.92083">
        <ele>224.12</ele>
        <time>2018-01-04T13:12:19Z</time>
      </trkpt>
      <trkpt lat="44.43044" lon="4.92106">
        <ele>224.12</ele>
        <time>2018-01-04T13:12:35Z</time>
      </trkpt>
      <trkpt lat="44.43045" lon="4.92112">
        <ele>224.12</ele>
        <time>2018-01-04T13:12:39Z</time>
      </trkpt>
      <trkpt lat="44.43049" lon="4.92132">
        <ele>223.16</ele>
        <time>2018-01-04T13:12:52Z</time>
      </trkpt>
      <trkpt lat="44.43052" lon="4.92141">
        <ele>223.16</ele>
        <time>2018-01-04T13:12:58Z</time>
      </trkpt>
      <trkpt lat="44.43053" lon="4.92148">
        <ele>223.16</ele>
        <time>2018-01-04T13:13:04Z</time>
      </trkpt>
      <trkpt lat="44.4306" lon="4.92174">
        <ele>223.16</ele>
        <time>2018-01-04T13:13:21Z</time>
      </trkpt>
      <trkpt lat="44.43066" lon="4.92195">
        <ele>223.16</ele>
        <time>2018-01-04T13:13:37Z</time>
      </trkpt>
      <trkpt lat="44.43069" lon="4.92217">
        <ele>224.12</ele>
        <time>2018-01-04T13:13:53Z</time>
      </trkpt>
      <trkpt lat="44.43069" lon="4.9222">
        <ele>224.61</ele>
        <time>2018-01-04T13:13:56Z</time>
      </trkpt>
      <trkpt lat="44.43072" lon="4.92238">
        <ele>225.09</ele>
        <time>2018-01-04T13:14:08Z</time>
      </trkpt>
      <trkpt lat="44.43076" lon="4.92259">
        <ele>226.05</ele>
        <time>2018-01-04T13:14:22Z</time>
      </trkpt>
      <trkpt lat="44.43078" lon="4.92261">
        <ele>226.53</ele>
        <time>2018-01-04T13:14:24Z</time>
      </trkpt>
      <trkpt lat="44.43081" lon="4.92283">
        <ele>227.01</ele>
        <time>2018-01-04T13:14:39Z</time>
      </trkpt>
      <trkpt lat="44.43083" lon="4.92308">
        <ele>227.49</ele>
        <time>2018-01-04T13:14:55Z</time>
      </trkpt>
      <trkpt lat="44.43082" lon="4.9232">
        <ele>227.97</ele>
        <time>2018-01-04T13:15:03Z</time>
      </trkpt>
      <trkpt lat="44.43082" lon="4.92346">
        <ele>228.93</ele>
        <time>2018-01-04T13:15:19Z</time>
      </trkpt>
      <trkpt lat="44.43083" lon="4.92373">
        <ele>229.41</ele>
        <time>2018-01-04T13:15:37Z</time>
      </trkpt>
      <trkpt lat="44.43083" lon="4.92401">
        <ele>230.37</ele>
        <time>2018-01-04T13:15:54Z</time>
      </trkpt>
      <trkpt lat="44.43082" lon="4.92423">
        <ele>230.37</ele>
        <time>2018-01-04T13:16:08Z</time>
      </trkpt>
      <trkpt lat="44.43081" lon="4.92449">
        <ele>231.33</ele>
        <time>2018-01-04T13:16:25Z</time>
      </trkpt>
      <trkpt lat="44.43078" lon="4.92472">
        <ele>231.81</ele>
        <time>2018-01-04T13:16:38Z</time>
      </trkpt>
      <trkpt lat="44.43076" lon="4.92488">
        <ele>232.3</ele>
        <time>2018-01-04T13:16:47Z</time>
      </trkpt>
      <trkpt lat="44.43072" lon="4.92516">
        <ele>232.3</ele>
        <time>2018-01-04T13:17:05Z</time>
      </trkpt>
      <trkpt lat="44.43072" lon="4.92541">
        <ele>232.78</ele>
        <time>2018-01-04T13:17:21Z</time>
      </trkpt>
      <trkpt lat="44.43072" lon="4.92565">
        <ele>233.26</ele>
        <time>2018-01-04T13:17:37Z</time>
      </trkpt>
      <trkpt lat="44.4307" lon="4.92584">
        <ele>233.26</ele>
        <time>2018-01-04T13:17:47Z</time>
      </trkpt>
      <trkpt lat="44.43069" lon="4.92591">
        <ele>233.26</ele>
        <time>2018-01-04T13:17:51Z</time>
      </trkpt>
      <trkpt lat="44.43065" lon="4.92616">
        <ele>233.26</ele>
        <time>2018-01-04T13:18:08Z</time>
      </trkpt>
      <trkpt lat="44.43064" lon="4.92633">
        <ele>233.26</ele>
        <time>2018-01-04T13:18:20Z</time>
      </trkpt>
      <trkpt lat="44.43065" lon="4.92639">
        <ele>233.74</ele>
        <time>2018-01-04T13:18:24Z</time>
      </trkpt>
      <trkpt lat="44.43061" lon="4.9267">
        <ele>233.74</ele>
        <time>2018-01-04T13:18:42Z</time>
      </trkpt>
      <trkpt lat="44.43059" lon="4.92693">
        <ele>233.74</ele>
        <time>2018-01-04T13:18:58Z</time>
      </trkpt>
      <trkpt lat="44.43055" lon="4.92716">
        <ele>233.74</ele>
        <time>2018-01-04T13:19:14Z</time>
      </trkpt>
      <trkpt lat="44.43054" lon="4.92741">
        <ele>233.74</ele>
        <time>2018-01-04T13:19:29Z</time>
      </trkpt>
      <trkpt lat="44.43054" lon="4.92767">
        <ele>233.74</ele>
        <time>2018-01-04T13:19:45Z</time>
      </trkpt>
      <trkpt lat="44.43054" lon="4.92798">
        <ele>233.74</ele>
        <time>2018-01-04T13:20:05Z</time>
      </trkpt>
      <trkpt lat="44.43055" lon="4.92828">
        <ele>233.74</ele>
        <time>2018-01-04T13:20:23Z</time>
      </trkpt>
      <trkpt lat="44.43057" lon="4.92856">
        <ele>234.22</ele>
        <time>2018-01-04T13:20:41Z</time>
      </trkpt>
      <trkpt lat="44.43058" lon="4.92882">
        <ele>234.7</ele>
        <time>2018-01-04T13:20:57Z</time>
      </trkpt>
      <trkpt lat="44.43058" lon="4.92908">
        <ele>235.66</ele>
        <time>2018-01-04T13:21:13Z</time>
      </trkpt>
      <trkpt lat="44.43057" lon="4.92939">
        <ele>236.14</ele>
        <time>2018-01-04T13:21:34Z</time>
      </trkpt>
      <trkpt lat="44.43057" lon="4.92963">
        <ele>236.14</ele>
        <time>2018-01-04T13:21:49Z</time>
      </trkpt>
      <trkpt lat="44.43057" lon="4.92988">
        <ele>236.62</ele>
        <time>2018-01-04T13:22:05Z</time>
      </trkpt>
      <trkpt lat="44.43057" lon="4.93013">
        <ele>237.1</ele>
        <time>2018-01-04T13:22:21Z</time>
      </trkpt>
      <trkpt lat="44.43057" lon="4.93036">
        <ele>237.58</ele>
        <time>2018-01-04T13:22:36Z</time>
      </trkpt>
      <trkpt lat="44.43054" lon="4.93059">
        <ele>237.58</ele>
        <time>2018-01-04T13:22:51Z</time>
      </trkpt>
      <trkpt lat="44.43042" lon="4.9308">
        <ele>238.06</ele>
        <time>2018-01-04T13:23:08Z</time>
      </trkpt>
      <trkpt lat="44.43029" lon="4.93097">
        <ele>239.02</ele>
        <time>2018-01-04T13:23:25Z</time>
      </trkpt>
      <trkpt lat="44.43017" lon="4.93121">
        <ele>239.51</ele>
        <time>2018-01-04T13:23:43Z</time>
      </trkpt>
      <trkpt lat="44.43015" lon="4.93133">
        <ele>239.51</ele>
        <time>2018-01-04T13:24:00Z</time>
      </trkpt>
      <trkpt lat="44.43012" lon="4.93135">
        <ele>239.51</ele>
        <time>2018-01-04T13:24:18Z</time>
      </trkpt>
      <trkpt lat="44.4301" lon="4.93138">
        <ele>239.99</ele>
        <time>2018-01-04T13:24:35Z</time>
      </trkpt>
      <trkpt lat="44.43011" lon="4.93138">
        <ele>239.99</ele>
        <time>2018-01-04T13:24:52Z</time>
      </trkpt>
      <trkpt lat="44.43011" lon="4.93137">
        <ele>239.99</ele>
        <time>2018-01-04T13:25:10Z</time>
      </trkpt>
      <trkpt lat="44.43011" lon="4.93137">
        <ele>239.99</ele>
        <time>2018-01-04T13:25:25Z</time>
      </trkpt>
      <trkpt lat="44.43011" lon="4.93135">
        <ele>239.99</ele>
        <time>2018-01-04T13:25:46Z</time>
      </trkpt>
      <trkpt lat="44.4301" lon="4.93136">
        <ele>239.99</ele>
        <time>2018-01-04T13:26:07Z</time>
      </trkpt>
      <trkpt lat="44.4301" lon="4.93137">
        <ele>239.99</ele>
        <time>2018-01-04T13:26:21Z</time>
      </trkpt>
      <trkpt lat="44.43011" lon="4.93139">
        <ele>239.99</ele>
        <time>2018-01-04T13:26:33Z</time>
      </trkpt>
      <trkpt lat="44.43011" lon="4.93139">
        <ele>239.99</ele>
        <time>2018-01-04T13:26:48Z</time>
      </trkpt>
      <trkpt lat="44.43011" lon="4.93142">
        <ele>239.99</ele>
        <time>2018-01-04T13:27:07Z</time>
      </trkpt>
      <trkpt lat="44.43009" lon="4.93144">
        <ele>239.99</ele>
        <time>2018-01-04T13:27:20Z</time>
      </trkpt>
      <trkpt lat="44.43007" lon="4.93144">
        <ele>239.99</ele>
        <time>2018-01-04T13:27:24Z</time>
      </trkpt>
      <trkpt lat="44.43003" lon="4.93147">
        <ele>239.99</ele>
        <time>2018-01-04T13:27:31Z</time>
      </trkpt>
      <trkpt lat="44.42996" lon="4.93161">
        <ele>239.99</ele>
        <time>2018-01-04T13:27:46Z</time>
      </trkpt>
      <trkpt lat="44.42991" lon="4.93168">
        <ele>239.99</ele>
        <time>2018-01-04T13:28:03Z</time>
      </trkpt>
      <trkpt lat="44.42986" lon="4.93178">
        <ele>239.99</ele>
        <time>2018-01-04T13:28:13Z</time>
      </trkpt>
      <trkpt lat="44.42977" lon="4.93192">
        <ele>239.02</ele>
        <time>2018-01-04T13:28:29Z</time>
      </trkpt>
      <trkpt lat="44.42964" lon="4.93205">
        <ele>238.06</ele>
        <time>2018-01-04T13:28:46Z</time>
      </trkpt>
      <trkpt lat="44.42962" lon="4.93207">
        <ele>237.58</ele>
        <time>2018-01-04T13:28:48Z</time>
      </trkpt>
      <trkpt lat="44.42947" lon="4.93216">
        <ele>235.66</ele>
        <time>2018-01-04T13:29:06Z</time>
      </trkpt>
      <trkpt lat="44.42933" lon="4.93225">
        <ele>235.18</ele>
        <time>2018-01-04T13:29:22Z</time>
      </trkpt>
      <trkpt lat="44.42912" lon="4.9323">
        <ele>234.7</ele>
        <time>2018-01-04T13:29:41Z</time>
      </trkpt>
      <trkpt lat="44.42898" lon="4.93233">
        <ele>234.22</ele>
        <time>2018-01-04T13:29:56Z</time>
      </trkpt>
      <trkpt lat="44.4288" lon="4.93233">
        <ele>233.74</ele>
        <time>2018-01-04T13:30:14Z</time>
      </trkpt>
      <trkpt lat="44.42868" lon="4.9323">
        <ele>233.74</ele>
        <time>2018-01-04T13:30:25Z</time>
      </trkpt>
      <trkpt lat="44.42853" lon="4.9322">
        <ele>233.26</ele>
        <time>2018-01-04T13:30:40Z</time>
      </trkpt>
      <trkpt lat="44.42838" lon="4.93208">
        <ele>233.26</ele>
        <time>2018-01-04T13:30:56Z</time>
      </trkpt>
      <trkpt lat="44.42829" lon="4.932">
        <ele>233.26</ele>
        <time>2018-01-04T13:31:12Z</time>
      </trkpt>
      <trkpt lat="44.42814" lon="4.93186">
        <ele>233.26</ele>
        <time>2018-01-04T13:31:30Z</time>
      </trkpt>
      <trkpt lat="44.42806" lon="4.93174">
        <ele>232.78</ele>
        <time>2018-01-04T13:31:42Z</time>
      </trkpt>
      <trkpt lat="44.42792" lon="4.93162">
        <ele>232.3</ele>
        <time>2018-01-04T13:31:59Z</time>
      </trkpt>
      <trkpt lat="44.42777" lon="4.93149">
        <ele>231.81</ele>
        <time>2018-01-04T13:32:15Z</time>
      </trkpt>
      <trkpt lat="44.42773" lon="4.93143">
        <ele>231.81</ele>
        <time>2018-01-04T13:32:21Z</time>
      </trkpt>
      <trkpt lat="44.42762" lon="4.93131">
        <ele>231.81</ele>
        <time>2018-01-04T13:32:36Z</time>
      </trkpt>
      <trkpt lat="44.42749" lon="4.93116">
        <ele>231.81</ele>
        <time>2018-01-04T13:32:51Z</time>
      </trkpt>
      <trkpt lat="44.42734" lon="4.931">
        <ele>231.81</ele>
        <time>2018-01-04T13:33:08Z</time>
      </trkpt>
      <trkpt lat="44.42722" lon="4.93086">
        <ele>231.33</ele>
        <time>2018-01-04T13:33:23Z</time>
      </trkpt>
      <trkpt lat="44.42711" lon="4.93074">
        <ele>231.33</ele>
        <time>2018-01-04T13:33:38Z</time>
      </trkpt>
      <trkpt lat="44.42695" lon="4.9306">
        <ele>230.37</ele>
        <time>2018-01-04T13:33:55Z</time>
      </trkpt>
      <trkpt lat="44.42678" lon="4.93049">
        <ele>230.37</ele>
        <time>2018-01-04T13:34:12Z</time>
      </trkpt>
      <trkpt lat="44.42663" lon="4.93045">
        <ele>230.37</ele>
        <time>2018-01-04T13:34:25Z</time>
      </trkpt>
      <trkpt lat="44.42648" lon="4.93042">
        <ele>230.37</ele>
        <time>2018-01-04T13:34:38Z</time>
      </trkpt>
      <trkpt lat="44.4263" lon="4.93032">
        <ele>230.37</ele>
        <time>2018-01-04T13:34:55Z</time>
      </trkpt>
      <trkpt lat="44.42612" lon="4.9302">
        <ele>230.37</ele>
        <time>2018-01-04T13:35:14Z</time>
      </trkpt>
      <trkpt lat="44.42594" lon="4.93011">
        <ele>230.37</ele>
        <time>2018-01-04T13:35:32Z</time>
      </trkpt>
      <trkpt lat="44.42577" lon="4.93003">
        <ele>230.37</ele>
        <time>2018-01-04T13:35:49Z</time>
      </trkpt>
      <trkpt lat="44.42566" lon="4.92998">
        <ele>230.37</ele>
        <time>2018-01-04T13:36:07Z</time>
      </trkpt>
      <trkpt lat="44.42562" lon="4.92999">
        <ele>230.37</ele>
        <time>2018-01-04T13:36:13Z</time>
      </trkpt>
      <trkpt lat="44.42557" lon="4.93">
        <ele>230.37</ele>
        <time>2018-01-04T13:36:19Z</time>
      </trkpt>
      <trkpt lat="44.42541" lon="4.93003">
        <ele>230.37</ele>
        <time>2018-01-04T13:36:35Z</time>
      </trkpt>
      <trkpt lat="44.42523" lon="4.93005">
        <ele>230.37</ele>
        <time>2018-01-04T13:36:52Z</time>
      </trkpt>
      <trkpt lat="44.42514" lon="4.93008">
        <ele>229.89</ele>
        <time>2018-01-04T13:37:06Z</time>
      </trkpt>
      <trkpt lat="44.42511" lon="4.93008">
        <ele>229.89</ele>
        <time>2018-01-04T13:37:10Z</time>
      </trkpt>
      <trkpt lat="44.42502" lon="4.93012">
        <ele>229.41</ele>
        <time>2018-01-04T13:37:24Z</time>
      </trkpt>
      <trkpt lat="44.42511" lon="4.93007">
        <ele>229.41</ele>
        <time>2018-01-04T13:37:41Z</time>
      </trkpt>
      <trkpt lat="44.42517" lon="4.92996">
        <ele>229.41</ele>
        <time>2018-01-04T13:37:55Z</time>
      </trkpt>
      <trkpt lat="44.42515" lon="4.92992">
        <ele>229.41</ele>
        <time>2018-01-04T13:37:58Z</time>
      </trkpt>
      <trkpt lat="44.4251" lon="4.92979">
        <ele>229.41</ele>
        <time>2018-01-04T13:38:08Z</time>
      </trkpt>
      <trkpt lat="44.42509" lon="4.92975">
        <ele>230.37</ele>
        <time>2018-01-04T13:38:12Z</time>
      </trkpt>
      <trkpt lat="44.42505" lon="4.92962">
        <ele>230.37</ele>
        <time>2018-01-04T13:38:22Z</time>
      </trkpt>
      <trkpt lat="44.42499" lon="4.92944">
        <ele>231.33</ele>
        <time>2018-01-04T13:38:37Z</time>
      </trkpt>
      <trkpt lat="44.42498" lon="4.9294">
        <ele>231.33</ele>
        <time>2018-01-04T13:38:42Z</time>
      </trkpt>
      <trkpt lat="44.42498" lon="4.92931">
        <ele>231.81</ele>
        <time>2018-01-04T13:38:50Z</time>
      </trkpt>
      <trkpt lat="44.42498" lon="4.9292">
        <ele>232.78</ele>
        <time>2018-01-04T13:39:02Z</time>
      </trkpt>
      <trkpt lat="44.42502" lon="4.92906">
        <ele>234.22</ele>
        <time>2018-01-04T13:39:15Z</time>
      </trkpt>
      <trkpt lat="44.42502" lon="4.92905">
        <ele>234.22</ele>
        <time>2018-01-04T13:39:16Z</time>
      </trkpt>
      <trkpt lat="44.42505" lon="4.92893">
        <ele>235.18</ele>
        <time>2018-01-04T13:39:26Z</time>
      </trkpt>
      <trkpt lat="44.42509" lon="4.92882">
        <ele>236.14</ele>
        <time>2018-01-04T13:39:36Z</time>
      </trkpt>
      <trkpt lat="44.42518" lon="4.92863">
        <ele>237.1</ele>
        <time>2018-01-04T13:39:52Z</time>
      </trkpt>
      <trkpt lat="44.42526" lon="4.92848">
        <ele>238.54</ele>
        <time>2018-01-04T13:40:06Z</time>
      </trkpt>
      <trkpt lat="44.42532" lon="4.92833">
        <ele>239.02</ele>
        <time>2018-01-04T13:40:19Z</time>
      </trkpt>
      <trkpt lat="44.42536" lon="4.92818">
        <ele>239.99</ele>
        <time>2018-01-04T13:40:31Z</time>
      </trkpt>
      <trkpt lat="44.42537" lon="4.92816">
        <ele>240.47</ele>
        <time>2018-01-04T13:40:33Z</time>
      </trkpt>
      <trkpt lat="44.42542" lon="4.92802">
        <ele>240.95</ele>
        <time>2018-01-04T13:40:46Z</time>
      </trkpt>
      <trkpt lat="44.42545" lon="4.92788">
        <ele>242.39</ele>
        <time>2018-01-04T13:40:58Z</time>
      </trkpt>
      <trkpt lat="44.42546" lon="4.92781">
        <ele>242.39</ele>
        <time>2018-01-04T13:41:03Z</time>
      </trkpt>
      <trkpt lat="44.42546" lon="4.92762">
        <ele>242.87</ele>
        <time>2018-01-04T13:41:18Z</time>
      </trkpt>
      <trkpt lat="44.42545" lon="4.92746">
        <ele>243.35</ele>
        <time>2018-01-04T13:41:30Z</time>
      </trkpt>
      <trkpt lat="44.42544" lon="4.92743">
        <ele>243.35</ele>
        <time>2018-01-04T13:41:33Z</time>
      </trkpt>
      <trkpt lat="44.42542" lon="4.92722">
        <ele>243.83</ele>
        <time>2018-01-04T13:41:48Z</time>
      </trkpt>
      <trkpt lat="44.42544" lon="4.92715">
        <ele>243.83</ele>
        <time>2018-01-04T13:41:53Z</time>
      </trkpt>
      <trkpt lat="44.42548" lon="4.92695">
        <ele>244.31</ele>
        <time>2018-01-04T13:42:07Z</time>
      </trkpt>
      <trkpt lat="44.42549" lon="4.92677">
        <ele>245.27</ele>
        <time>2018-01-04T13:42:21Z</time>
      </trkpt>
      <trkpt lat="44.42551" lon="4.92668">
        <ele>245.27</ele>
        <time>2018-01-04T13:42:36Z</time>
      </trkpt>
      <trkpt lat="44.4255" lon="4.92665">
        <ele>245.75</ele>
        <time>2018-01-04T13:42:57Z</time>
      </trkpt>
      <trkpt lat="44.4255" lon="4.92665">
        <ele>245.75</ele>
        <time>2018-01-04T13:43:19Z</time>
      </trkpt>
      <trkpt lat="44.42553" lon="4.92667">
        <ele>245.75</ele>
        <time>2018-01-04T13:43:42Z</time>
      </trkpt>
      <trkpt lat="44.42552" lon="4.92667">
        <ele>245.75</ele>
        <time>2018-01-04T13:43:58Z</time>
      </trkpt>
      <trkpt lat="44.4255" lon="4.92667">
        <ele>245.75</ele>
        <time>2018-01-04T13:44:24Z</time>
      </trkpt>
      <trkpt lat="44.42548" lon="4.92666">
        <ele>245.75</ele>
        <time>2018-01-04T13:44:52Z</time>
      </trkpt>
      <trkpt lat="44.42551" lon="4.92665">
        <ele>245.75</ele>
        <time>2018-01-04T13:45:19Z</time>
      </trkpt>
      <trkpt lat="44.42549" lon="4.92666">
        <ele>245.75</ele>
        <time>2018-01-04T13:45:39Z</time>
      </trkpt>
      <trkpt lat="44.42549" lon="4.92667">
        <ele>245.75</ele>
        <time>2018-01-04T13:45:41Z</time>
      </trkpt>
      <trkpt lat="44.4255" lon="4.92667">
        <ele>245.75</ele>
        <time>2018-01-04T13:45:54Z</time>
      </trkpt>
      <trkpt lat="44.42552" lon="4.92656">
        <ele>245.75</ele>
        <time>2018-01-04T13:46:04Z</time>
      </trkpt>
      <trkpt lat="44.42555" lon="4.9265">
        <ele>245.75</ele>
        <time>2018-01-04T13:46:10Z</time>
      </trkpt>
      <trkpt lat="44.42555" lon="4.92628">
        <ele>246.72</ele>
        <time>2018-01-04T13:46:26Z</time>
      </trkpt>
      <trkpt lat="44.42559" lon="4.92608">
        <ele>247.2</ele>
        <time>2018-01-04T13:46:43Z</time>
      </trkpt>
      <trkpt lat="44.42563" lon="4.92607">
        <ele>247.68</ele>
        <time>2018-01-04T13:47:02Z</time>
      </trkpt>
      <trkpt lat="44.42564" lon="4.92606">
        <ele>247.68</ele>
        <time>2018-01-04T13:47:03Z</time>
      </trkpt>
      <trkpt lat="44.42566" lon="4.92605">
        <ele>247.68</ele>
        <time>2018-01-04T13:47:07Z</time>
      </trkpt>
      <trkpt lat="44.42578" lon="4.92603">
        <ele>249.12</ele>
        <time>2018-01-04T13:47:20Z</time>
      </trkpt>
      <trkpt lat="44.42587" lon="4.92609">
        <ele>249.6</ele>
        <time>2018-01-04T13:47:30Z</time>
      </trkpt>
      <trkpt lat="44.42599" lon="4.92613">
        <ele>250.56</ele>
        <time>2018-01-04T13:47:44Z</time>
      </trkpt>
      <trkpt lat="44.4261" lon="4.92615">
        <ele>251.52</ele>
        <time>2018-01-04T13:47:56Z</time>
      </trkpt>
      <trkpt lat="44.42621" lon="4.9261">
        <ele>252.96</ele>
        <time>2018-01-04T13:48:10Z</time>
      </trkpt>
      <trkpt lat="44.42634" lon="4.92607">
        <ele>254.41</ele>
        <time>2018-01-04T13:48:25Z</time>
      </trkpt>
      <trkpt lat="44.42648" lon="4.92607">
        <ele>255.37</ele>
        <time>2018-01-04T13:48:39Z</time>
      </trkpt>
      <trkpt lat="44.42661" lon="4.926">
        <ele>255.85</ele>
        <time>2018-01-04T13:48:55Z</time>
      </trkpt>
      <trkpt lat="44.42663" lon="4.92594">
        <ele>255.85</ele>
        <time>2018-01-04T13:49:00Z</time>
      </trkpt>
      <trkpt lat="44.42665" lon="4.92565">
        <ele>256.33</ele>
        <time>2018-01-04T13:49:21Z</time>
      </trkpt>
      <trkpt lat="44.42666" lon="4.9254">
        <ele>256.81</ele>
        <time>2018-01-04T13:49:38Z</time>
      </trkpt>
      <trkpt lat="44.42668" lon="4.92536">
        <ele>256.81</ele>
        <time>2018-01-04T13:49:42Z</time>
      </trkpt>
      <trkpt lat="44.42684" lon="4.92525">
        <ele>257.77</ele>
        <time>2018-01-04T13:50:02Z</time>
      </trkpt>
      <trkpt lat="44.42698" lon="4.92516">
        <ele>258.73</ele>
        <time>2018-01-04T13:50:19Z</time>
      </trkpt>
      <trkpt lat="44.42711" lon="4.92505">
        <ele>259.69</ele>
        <time>2018-01-04T13:50:35Z</time>
      </trkpt>
      <trkpt lat="44.42727" lon="4.92498">
        <ele>260.65</ele>
        <time>2018-01-04T13:50:51Z</time>
      </trkpt>
      <trkpt lat="44.42742" lon="4.9249">
        <ele>262.58</ele>
        <time>2018-01-04T13:51:08Z</time>
      </trkpt>
      <trkpt lat="44.42755" lon="4.9248">
        <ele>264.5</ele>
        <time>2018-01-04T13:51:25Z</time>
      </trkpt>
      <trkpt lat="44.42764" lon="4.92467">
        <ele>265.94</ele>
        <time>2018-01-04T13:51:41Z</time>
      </trkpt>
      <trkpt lat="44.42766" lon="4.92463">
        <ele>265.94</ele>
        <time>2018-01-04T13:51:45Z</time>
      </trkpt>
      <trkpt lat="44.42772" lon="4.92446">
        <ele>266.9</ele>
        <time>2018-01-04T13:52:01Z</time>
      </trkpt>
      <trkpt lat="44.42779" lon="4.92427">
        <ele>268.35</ele>
        <time>2018-01-04T13:52:19Z</time>
      </trkpt>
      <trkpt lat="44.42781" lon="4.92421">
        <ele>268.35</ele>
        <time>2018-01-04T13:52:41Z</time>
      </trkpt>
      <trkpt lat="44.42794" lon="4.92413">
        <ele>268.35</ele>
        <time>2018-01-04T13:52:59Z</time>
      </trkpt>
      <trkpt lat="44.42803" lon="4.92406">
        <ele>269.79</ele>
        <time>2018-01-04T13:53:13Z</time>
      </trkpt>
      <trkpt lat="44.42817" lon="4.92398">
        <ele>270.27</ele>
        <time>2018-01-04T13:53:29Z</time>
      </trkpt>
      <trkpt lat="44.42823" lon="4.92398">
        <ele>270.27</ele>
        <time>2018-01-04T13:53:36Z</time>
      </trkpt>
      <trkpt lat="44.4284" lon="4.924">
        <ele>270.75</ele>
        <time>2018-01-04T13:53:53Z</time>
      </trkpt>
      <trkpt lat="44.42855" lon="4.92402">
        <ele>271.71</ele>
        <time>2018-01-04T13:54:09Z</time>
      </trkpt>
      <trkpt lat="44.42861" lon="4.92404">
        <ele>272.67</ele>
        <time>2018-01-04T13:54:16Z</time>
      </trkpt>
      <trkpt lat="44.42864" lon="4.92406">
        <ele>272.67</ele>
        <time>2018-01-04T13:54:19Z</time>
      </trkpt>
      <trkpt lat="44.42879" lon="4.92404">
        <ele>273.15</ele>
        <time>2018-01-04T13:54:36Z</time>
      </trkpt>
      <trkpt lat="44.42887" lon="4.92398">
        <ele>273.63</ele>
        <time>2018-01-04T13:54:47Z</time>
      </trkpt>
      <trkpt lat="44.42891" lon="4.92393">
        <ele>273.63</ele>
        <time>2018-01-04T13:54:54Z</time>
      </trkpt>
      <trkpt lat="44.42896" lon="4.9239">
        <ele>275.07</ele>
        <time>2018-01-04T13:55:07Z</time>
      </trkpt>
      <trkpt lat="44.42896" lon="4.92389">
        <ele>274.11</ele>
        <time>2018-01-04T13:55:23Z</time>
      </trkpt>
      <trkpt lat="44.42897" lon="4.92388">
        <ele>274.11</ele>
        <time>2018-01-04T13:55:47Z</time>
      </trkpt>
      <trkpt lat="44.42894" lon="4.9239">
        <ele>274.11</ele>
        <time>2018-01-04T13:55:56Z</time>
      </trkpt>
      <trkpt lat="44.42887" lon="4.92387">
        <ele>274.11</ele>
        <time>2018-01-04T13:56:10Z</time>
      </trkpt>
      <trkpt lat="44.42885" lon="4.92384">
        <ele>274.11</ele>
        <time>2018-01-04T13:56:29Z</time>
      </trkpt>
      <trkpt lat="44.42887" lon="4.92388">
        <ele>275.56</ele>
        <time>2018-01-04T13:56:44Z</time>
      </trkpt>
      <trkpt lat="44.42887" lon="4.9239">
        <ele>274.11</ele>
        <time>2018-01-04T13:57:00Z</time>
      </trkpt>
      <trkpt lat="44.42889" lon="4.92395">
        <ele>274.11</ele>
        <time>2018-01-04T13:57:11Z</time>
      </trkpt>
      <trkpt lat="44.42892" lon="4.92397">
        <ele>273.63</ele>
        <time>2018-01-04T13:57:26Z</time>
      </trkpt>
      <trkpt lat="44.42893" lon="4.92398">
        <ele>273.63</ele>
        <time>2018-01-04T13:57:53Z</time>
      </trkpt>
      <trkpt lat="44.42891" lon="4.92397">
        <ele>273.63</ele>
        <time>2018-01-04T13:58:14Z</time>
      </trkpt>
      <trkpt lat="44.42889" lon="4.924">
        <ele>273.63</ele>
        <time>2018-01-04T13:58:31Z</time>
      </trkpt>
      <trkpt lat="44.42879" lon="4.92403">
        <ele>273.15</ele>
        <time>2018-01-04T13:58:44Z</time>
      </trkpt>
      <trkpt lat="44.42878" lon="4.92404">
        <ele>273.15</ele>
        <time>2018-01-04T13:58:46Z</time>
      </trkpt>
      <trkpt lat="44.42875" lon="4.92405">
        <ele>273.15</ele>
        <time>2018-01-04T13:58:49Z</time>
      </trkpt>
      <trkpt lat="44.42861" lon="4.92403">
        <ele>273.15</ele>
        <time>2018-01-04T13:59:05Z</time>
      </trkpt>
      <trkpt lat="44.42845" lon="4.92399">
        <ele>272.19</ele>
        <time>2018-01-04T13:59:22Z</time>
      </trkpt>
      <trkpt lat="44.42833" lon="4.92398">
        <ele>271.71</ele>
        <time>2018-01-04T13:59:40Z</time>
      </trkpt>
      <trkpt lat="44.42826" lon="4.92395">
        <ele>270.75</ele>
        <time>2018-01-04T13:59:52Z</time>
      </trkpt>
      <trkpt lat="44.42819" lon="4.92396">
        <ele>270.27</ele>
        <time>2018-01-04T14:00:01Z</time>
      </trkpt>
      <trkpt lat="44.42804" lon="4.92403">
        <ele>269.79</ele>
        <time>2018-01-04T14:00:18Z</time>
      </trkpt>
      <trkpt lat="44.42792" lon="4.92413">
        <ele>268.35</ele>
        <time>2018-01-04T14:00:34Z</time>
      </trkpt>
      <trkpt lat="44.42785" lon="4.92419">
        <ele>267.86</ele>
        <time>2018-01-04T14:00:44Z</time>
      </trkpt>
      <trkpt lat="44.42781" lon="4.92427">
        <ele>267.86</ele>
        <time>2018-01-04T14:00:51Z</time>
      </trkpt>
      <trkpt lat="44.42776" lon="4.92436">
        <ele>267.38</ele>
        <time>2018-01-04T14:01:01Z</time>
      </trkpt>
      <trkpt lat="44.42772" lon="4.9245">
        <ele>267.38</ele>
        <time>2018-01-04T14:01:16Z</time>
      </trkpt>
      <trkpt lat="44.42771" lon="4.92452">
        <ele>267.38</ele>
        <time>2018-01-04T14:01:17Z</time>
      </trkpt>
      <trkpt lat="44.42765" lon="4.92467">
        <ele>266.42</ele>
        <time>2018-01-04T14:01:33Z</time>
      </trkpt>
      <trkpt lat="44.42756" lon="4.92479">
        <ele>264.98</ele>
        <time>2018-01-04T14:01:47Z</time>
      </trkpt>
      <trkpt lat="44.42754" lon="4.9248">
        <ele>264.5</ele>
        <time>2018-01-04T14:01:51Z</time>
      </trkpt>
      <trkpt lat="44.42742" lon="4.92489">
        <ele>263.06</ele>
        <time>2018-01-04T14:02:07Z</time>
      </trkpt>
      <trkpt lat="44.4273" lon="4.92497">
        <ele>261.62</ele>
        <time>2018-01-04T14:02:21Z</time>
      </trkpt>
      <trkpt lat="44.42722" lon="4.925">
        <ele>260.65</ele>
        <time>2018-01-04T14:02:31Z</time>
      </trkpt>
      <trkpt lat="44.42709" lon="4.92507">
        <ele>260.17</ele>
        <time>2018-01-04T14:02:45Z</time>
      </trkpt>
      <trkpt lat="44.42699" lon="4.92517">
        <ele>259.21</ele>
        <time>2018-01-04T14:02:59Z</time>
      </trkpt>
      <trkpt lat="44.42687" lon="4.92525">
        <ele>258.73</ele>
        <time>2018-01-04T14:03:12Z</time>
      </trkpt>
      <trkpt lat="44.42675" lon="4.92529">
        <ele>258.25</ele>
        <time>2018-01-04T14:03:26Z</time>
      </trkpt>
      <trkpt lat="44.42674" lon="4.92529">
        <ele>258.25</ele>
        <time>2018-01-04T14:03:27Z</time>
      </trkpt>
      <trkpt lat="44.42666" lon="4.92547">
        <ele>257.29</ele>
        <time>2018-01-04T14:03:42Z</time>
      </trkpt>
      <trkpt lat="44.42666" lon="4.92565">
        <ele>256.81</ele>
        <time>2018-01-04T14:03:54Z</time>
      </trkpt>
      <trkpt lat="44.42664" lon="4.92583">
        <ele>256.81</ele>
        <time>2018-01-04T14:04:08Z</time>
      </trkpt>
      <trkpt lat="44.42664" lon="4.92591">
        <ele>256.81</ele>
        <time>2018-01-04T14:04:12Z</time>
      </trkpt>
      <trkpt lat="44.42663" lon="4.92596">
        <ele>256.81</ele>
        <time>2018-01-04T14:04:17Z</time>
      </trkpt>
      <trkpt lat="44.42653" lon="4.92607">
        <ele>256.33</ele>
        <time>2018-01-04T14:04:30Z</time>
      </trkpt>
      <trkpt lat="44.42643" lon="4.92606">
        <ele>255.85</ele>
        <time>2018-01-04T14:04:43Z</time>
      </trkpt>
      <trkpt lat="44.42627" lon="4.92608">
        <ele>254.89</ele>
        <time>2018-01-04T14:04:57Z</time>
      </trkpt>
      <trkpt lat="44.42609" lon="4.92613">
        <ele>252.48</ele>
        <time>2018-01-04T14:05:17Z</time>
      </trkpt>
      <trkpt lat="44.42594" lon="4.92609">
        <ele>251.52</ele>
        <time>2018-01-04T14:05:33Z</time>
      </trkpt>
      <trkpt lat="44.42588" lon="4.92606">
        <ele>250.56</ele>
        <time>2018-01-04T14:05:41Z</time>
      </trkpt>
      <trkpt lat="44.42575" lon="4.92599">
        <ele>249.12</ele>
        <time>2018-01-04T14:05:57Z</time>
      </trkpt>
      <trkpt lat="44.42572" lon="4.926">
        <ele>249.12</ele>
        <time>2018-01-04T14:06:01Z</time>
      </trkpt>
      <trkpt lat="44.42563" lon="4.92606">
        <ele>248.16</ele>
        <time>2018-01-04T14:06:12Z</time>
      </trkpt>
      <trkpt lat="44.42559" lon="4.92615">
        <ele>247.68</ele>
        <time>2018-01-04T14:06:21Z</time>
      </trkpt>
      <trkpt lat="44.42558" lon="4.92634">
        <ele>246.72</ele>
        <time>2018-01-04T14:06:34Z</time>
      </trkpt>
      <trkpt lat="44.42554" lon="4.9265">
        <ele>246.23</ele>
        <time>2018-01-04T14:06:47Z</time>
      </trkpt>
      <trkpt lat="44.4255" lon="4.92666">
        <ele>246.23</ele>
        <time>2018-01-04T14:06:59Z</time>
      </trkpt>
      <trkpt lat="44.42547" lon="4.92677">
        <ele>246.23</ele>
        <time>2018-01-04T14:07:07Z</time>
      </trkpt>
      <trkpt lat="44.42546" lon="4.92696">
        <ele>245.27</ele>
        <time>2018-01-04T14:07:20Z</time>
      </trkpt>
      <trkpt lat="44.42543" lon="4.92711">
        <ele>244.79</ele>
        <time>2018-01-04T14:07:33Z</time>
      </trkpt>
      <trkpt lat="44.42543" lon="4.92729">
        <ele>244.31</ele>
        <time>2018-01-04T14:07:45Z</time>
      </trkpt>
      <trkpt lat="44.42545" lon="4.92748">
        <ele>244.31</ele>
        <time>2018-01-04T14:07:58Z</time>
      </trkpt>
      <trkpt lat="44.42545" lon="4.9275">
        <ele>244.31</ele>
        <time>2018-01-04T14:08:00Z</time>
      </trkpt>
      <trkpt lat="44.42545" lon="4.92759">
        <ele>243.83</ele>
        <time>2018-01-04T14:08:09Z</time>
      </trkpt>
      <trkpt lat="44.42546" lon="4.92767">
        <ele>243.83</ele>
        <time>2018-01-04T14:08:13Z</time>
      </trkpt>
      <trkpt lat="44.42546" lon="4.92773">
        <ele>243.35</ele>
        <time>2018-01-04T14:08:18Z</time>
      </trkpt>
      <trkpt lat="44.42544" lon="4.92785">
        <ele>243.35</ele>
        <time>2018-01-04T14:08:27Z</time>
      </trkpt>
      <trkpt lat="44.42541" lon="4.92798">
        <ele>242.39</ele>
        <time>2018-01-04T14:08:39Z</time>
      </trkpt>
      <trkpt lat="44.42534" lon="4.92816">
        <ele>240.95</ele>
        <time>2018-01-04T14:08:52Z</time>
      </trkpt>
      <trkpt lat="44.42529" lon="4.92836">
        <ele>240.47</ele>
        <time>2018-01-04T14:09:07Z</time>
      </trkpt>
      <trkpt lat="44.42521" lon="4.92851">
        <ele>239.02</ele>
        <time>2018-01-04T14:09:21Z</time>
      </trkpt>
      <trkpt lat="44.42519" lon="4.92853">
        <ele>239.02</ele>
        <time>2018-01-04T14:09:25Z</time>
      </trkpt>
      <trkpt lat="44.42513" lon="4.92868">
        <ele>237.58</ele>
        <time>2018-01-04T14:09:37Z</time>
      </trkpt>
      <trkpt lat="44.42509" lon="4.9288">
        <ele>237.1</ele>
        <time>2018-01-04T14:09:47Z</time>
      </trkpt>
      <trkpt lat="44.42506" lon="4.92887">
        <ele>236.62</ele>
        <time>2018-01-04T14:09:51Z</time>
      </trkpt>
      <trkpt lat="44.42501" lon="4.92898">
        <ele>235.66</ele>
        <time>2018-01-04T14:10:00Z</time>
      </trkpt>
      <trkpt lat="44.42497" lon="4.92915">
        <ele>234.7</ele>
        <time>2018-01-04T14:10:13Z</time>
      </trkpt>
      <trkpt lat="44.42494" lon="4.92932">
        <ele>233.26</ele>
        <time>2018-01-04T14:10:26Z</time>
      </trkpt>
      <trkpt lat="44.42495" lon="4.92936">
        <ele>233.26</ele>
        <time>2018-01-04T14:10:29Z</time>
      </trkpt>
      <trkpt lat="44.42502" lon="4.92955">
        <ele>232.3</ele>
        <time>2018-01-04T14:10:45Z</time>
      </trkpt>
      <trkpt lat="44.42503" lon="4.92958">
        <ele>231.81</ele>
        <time>2018-01-04T14:10:48Z</time>
      </trkpt>
      <trkpt lat="44.42511" lon="4.92976">
        <ele>231.33</ele>
        <time>2018-01-04T14:11:03Z</time>
      </trkpt>
      <trkpt lat="44.42513" lon="4.9299">
        <ele>230.37</ele>
        <time>2018-01-04T14:11:16Z</time>
      </trkpt>
      <trkpt lat="44.42513" lon="4.92991">
        <ele>230.37</ele>
        <time>2018-01-04T14:11:17Z</time>
      </trkpt>
      <trkpt lat="44.42511" lon="4.92999">
        <ele>230.37</ele>
        <time>2018-01-04T14:11:24Z</time>
      </trkpt>
      <trkpt lat="44.42501" lon="4.93008">
        <ele>229.89</ele>
        <time>2018-01-04T14:11:38Z</time>
      </trkpt>
      <trkpt lat="44.42499" lon="4.93008">
        <ele>229.89</ele>
        <time>2018-01-04T14:11:40Z</time>
      </trkpt>
      <trkpt lat="44.42486" lon="4.93006">
        <ele>229.89</ele>
        <time>2018-01-04T14:11:55Z</time>
      </trkpt>
      <trkpt lat="44.42475" lon="4.93002">
        <ele>229.41</ele>
        <time>2018-01-04T14:12:08Z</time>
      </trkpt>
      <trkpt lat="44.4247" lon="4.92999">
        <ele>229.41</ele>
        <time>2018-01-04T14:12:14Z</time>
      </trkpt>
      <trkpt lat="44.42454" lon="4.92991">
        <ele>229.41</ele>
        <time>2018-01-04T14:12:30Z</time>
      </trkpt>
      <trkpt lat="44.42439" lon="4.92989">
        <ele>229.41</ele>
        <time>2018-01-04T14:12:44Z</time>
      </trkpt>
      <trkpt lat="44.42428" lon="4.92987">
        <ele>229.41</ele>
        <time>2018-01-04T14:12:56Z</time>
      </trkpt>
      <trkpt lat="44.42425" lon="4.92984">
        <ele>229.41</ele>
        <time>2018-01-04T14:12:59Z</time>
      </trkpt>
      <trkpt lat="44.42416" lon="4.92982">
        <ele>229.41</ele>
        <time>2018-01-04T14:13:10Z</time>
      </trkpt>
      <trkpt lat="44.42409" lon="4.92984">
        <ele>229.89</ele>
        <time>2018-01-04T14:13:20Z</time>
      </trkpt>
      <trkpt lat="44.42391" lon="4.92974">
        <ele>229.89</ele>
        <time>2018-01-04T14:13:39Z</time>
      </trkpt>
      <trkpt lat="44.42383" lon="4.92972">
        <ele>229.89</ele>
        <time>2018-01-04T14:13:47Z</time>
      </trkpt>
      <trkpt lat="44.42368" lon="4.92962">
        <ele>230.85</ele>
        <time>2018-01-04T14:14:03Z</time>
      </trkpt>
      <trkpt lat="44.42354" lon="4.92952">
        <ele>231.81</ele>
        <time>2018-01-04T14:14:18Z</time>
      </trkpt>
      <trkpt lat="44.42343" lon="4.92943">
        <ele>232.3</ele>
        <time>2018-01-04T14:14:32Z</time>
      </trkpt>
      <trkpt lat="44.42341" lon="4.92942">
        <ele>232.3</ele>
        <time>2018-01-04T14:14:35Z</time>
      </trkpt>
      <trkpt lat="44.42326" lon="4.92928">
        <ele>233.26</ele>
        <time>2018-01-04T14:14:53Z</time>
      </trkpt>
      <trkpt lat="44.42312" lon="4.92919">
        <ele>234.7</ele>
        <time>2018-01-04T14:15:09Z</time>
      </trkpt>
      <trkpt lat="44.42299" lon="4.92911">
        <ele>234.7</ele>
        <time>2018-01-04T14:15:25Z</time>
      </trkpt>
      <trkpt lat="44.42289" lon="4.92908">
        <ele>234.7</ele>
        <time>2018-01-04T14:15:37Z</time>
      </trkpt>
      <trkpt lat="44.42285" lon="4.92908">
        <ele>234.7</ele>
        <time>2018-01-04T14:15:43Z</time>
      </trkpt>
      <trkpt lat="44.42279" lon="4.9291">
        <ele>234.7</ele>
        <time>2018-01-04T14:15:50Z</time>
      </trkpt>
      <trkpt lat="44.42276" lon="4.92909">
        <ele>234.7</ele>
        <time>2018-01-04T14:15:54Z</time>
      </trkpt>
      <trkpt lat="44.42265" lon="4.92915">
        <ele>234.7</ele>
        <time>2018-01-04T14:16:08Z</time>
      </trkpt>
      <trkpt lat="44.42251" lon="4.92922">
        <ele>235.18</ele>
        <time>2018-01-04T14:16:24Z</time>
      </trkpt>
      <trkpt lat="44.42238" lon="4.92929">
        <ele>235.66</ele>
        <time>2018-01-04T14:16:40Z</time>
      </trkpt>
      <trkpt lat="44.42227" lon="4.9294">
        <ele>235.66</ele>
        <time>2018-01-04T14:16:54Z</time>
      </trkpt>
      <trkpt lat="44.42215" lon="4.92952">
        <ele>236.14</ele>
        <time>2018-01-04T14:17:08Z</time>
      </trkpt>
      <trkpt lat="44.42206" lon="4.92955">
        <ele>236.14</ele>
        <time>2018-01-04T14:17:17Z</time>
      </trkpt>
      <trkpt lat="44.42199" lon="4.92956">
        <ele>234.7</ele>
        <time>2018-01-04T14:17:23Z</time>
      </trkpt>
      <trkpt lat="44.42186" lon="4.92955">
        <ele>233.26</ele>
        <time>2018-01-04T14:17:37Z</time>
      </trkpt>
      <trkpt lat="44.42177" lon="4.92955">
        <ele>232.3</ele>
        <time>2018-01-04T14:17:50Z</time>
      </trkpt>
      <trkpt lat="44.42161" lon="4.92956">
        <ele>231.33</ele>
        <time>2018-01-04T14:18:06Z</time>
      </trkpt>
      <trkpt lat="44.42155" lon="4.92956">
        <ele>231.33</ele>
        <time>2018-01-04T14:18:11Z</time>
      </trkpt>
      <trkpt lat="44.42143" lon="4.92952">
        <ele>230.85</ele>
        <time>2018-01-04T14:18:24Z</time>
      </trkpt>
      <trkpt lat="44.42135" lon="4.92948">
        <ele>230.37</ele>
        <time>2018-01-04T14:18:33Z</time>
      </trkpt>
      <trkpt lat="44.42121" lon="4.92943">
        <ele>229.41</ele>
        <time>2018-01-04T14:18:48Z</time>
      </trkpt>
      <trkpt lat="44.4211" lon="4.9294">
        <ele>227.97</ele>
        <time>2018-01-04T14:19:01Z</time>
      </trkpt>
      <trkpt lat="44.42093" lon="4.92934">
        <ele>227.01</ele>
        <time>2018-01-04T14:19:17Z</time>
      </trkpt>
      <trkpt lat="44.42086" lon="4.92933">
        <ele>226.53</ele>
        <time>2018-01-04T14:19:26Z</time>
      </trkpt>
      <trkpt lat="44.42074" lon="4.92928">
        <ele>225.57</ele>
        <time>2018-01-04T14:19:38Z</time>
      </trkpt>
      <trkpt lat="44.42064" lon="4.92923">
        <ele>225.09</ele>
        <time>2018-01-04T14:19:49Z</time>
      </trkpt>
      <trkpt lat="44.42051" lon="4.92917">
        <ele>224.61</ele>
        <time>2018-01-04T14:20:02Z</time>
      </trkpt>
      <trkpt lat="44.4205" lon="4.92917">
        <ele>224.12</ele>
        <time>2018-01-04T14:20:04Z</time>
      </trkpt>
      <trkpt lat="44.42036" lon="4.92917">
        <ele>223.16</ele>
        <time>2018-01-04T14:20:19Z</time>
      </trkpt>
      <trkpt lat="44.42023" lon="4.92917">
        <ele>222.2</ele>
        <time>2018-01-04T14:20:33Z</time>
      </trkpt>
      <trkpt lat="44.42007" lon="4.92915">
        <ele>221.24</ele>
        <time>2018-01-04T14:20:50Z</time>
      </trkpt>
      <trkpt lat="44.4199" lon="4.92911">
        <ele>221.24</ele>
        <time>2018-01-04T14:21:05Z</time>
      </trkpt>
      <trkpt lat="44.4198" lon="4.92908">
        <ele>220.76</ele>
        <time>2018-01-04T14:21:15Z</time>
      </trkpt>
      <trkpt lat="44.41967" lon="4.92905">
        <ele>220.28</ele>
        <time>2018-01-04T14:21:29Z</time>
      </trkpt>
      <trkpt lat="44.41965" lon="4.92905">
        <ele>220.28</ele>
        <time>2018-01-04T14:21:32Z</time>
      </trkpt>
      <trkpt lat="44.41958" lon="4.92908">
        <ele>220.28</ele>
        <time>2018-01-04T14:21:40Z</time>
      </trkpt>
      <trkpt lat="44.41943" lon="4.92916">
        <ele>219.8</ele>
        <time>2018-01-04T14:21:55Z</time>
      </trkpt>
      <trkpt lat="44.41932" lon="4.92922">
        <ele>219.32</ele>
        <time>2018-01-04T14:22:09Z</time>
      </trkpt>
      <trkpt lat="44.41919" lon="4.92921">
        <ele>218.84</ele>
        <time>2018-01-04T14:22:21Z</time>
      </trkpt>
      <trkpt lat="44.41916" lon="4.92919">
        <ele>218.84</ele>
        <time>2018-01-04T14:22:25Z</time>
      </trkpt>
      <trkpt lat="44.41911" lon="4.92915">
        <ele>217.88</ele>
        <time>2018-01-04T14:22:29Z</time>
      </trkpt>
      <trkpt lat="44.41909" lon="4.92914">
        <ele>217.88</ele>
        <time>2018-01-04T14:22:30Z</time>
      </trkpt>
      <trkpt lat="44.41903" lon="4.92911">
        <ele>217.88</ele>
        <time>2018-01-04T14:22:38Z</time>
      </trkpt>
      <trkpt lat="44.41889" lon="4.92913">
        <ele>217.4</ele>
        <time>2018-01-04T14:22:52Z</time>
      </trkpt>
      <trkpt lat="44.41877" lon="4.92921">
        <ele>216.91</ele>
        <time>2018-01-04T14:23:06Z</time>
      </trkpt>
      <trkpt lat="44.41865" lon="4.92929">
        <ele>216.43</ele>
        <time>2018-01-04T14:23:19Z</time>
      </trkpt>
      <trkpt lat="44.41863" lon="4.9293">
        <ele>215.95</ele>
        <time>2018-01-04T14:23:21Z</time>
      </trkpt>
      <trkpt lat="44.41862" lon="4.92931">
        <ele>215.95</ele>
        <time>2018-01-04T14:23:22Z</time>
      </trkpt>
      <trkpt lat="44.41861" lon="4.92932">
        <ele>215.95</ele>
        <time>2018-01-04T14:23:23Z</time>
      </trkpt>
      <trkpt lat="44.41859" lon="4.92933">
        <ele>215.95</ele>
        <time>2018-01-04T14:23:24Z</time>
      </trkpt>
      <trkpt lat="44.41858" lon="4.92933">
        <ele>215.95</ele>
        <time>2018-01-04T14:23:25Z</time>
      </trkpt>
      <trkpt lat="44.41856" lon="4.92934">
        <ele>215.47</ele>
        <time>2018-01-04T14:23:27Z</time>
      </trkpt>
      <trkpt lat="44.41854" lon="4.92934">
        <ele>215.47</ele>
        <time>2018-01-04T14:23:28Z</time>
      </trkpt>
      <trkpt lat="44.4184" lon="4.92945">
        <ele>214.99</ele>
        <time>2018-01-04T14:23:43Z</time>
      </trkpt>
      <trkpt lat="44.41827" lon="4.92948">
        <ele>214.51</ele>
        <time>2018-01-04T14:23:56Z</time>
      </trkpt>
      <trkpt lat="44.41816" lon="4.92948">
        <ele>214.51</ele>
        <time>2018-01-04T14:24:06Z</time>
      </trkpt>
      <trkpt lat="44.41812" lon="4.92949">
        <ele>214.51</ele>
        <time>2018-01-04T14:24:09Z</time>
      </trkpt>
      <trkpt lat="44.418" lon="4.9295">
        <ele>214.03</ele>
        <time>2018-01-04T14:24:23Z</time>
      </trkpt>
      <trkpt lat="44.41794" lon="4.9295">
        <ele>214.03</ele>
        <time>2018-01-04T14:24:37Z</time>
      </trkpt>
      <trkpt lat="44.41793" lon="4.92952">
        <ele>214.03</ele>
        <time>2018-01-04T14:24:48Z</time>
      </trkpt>
      <trkpt lat="44.41791" lon="4.92952">
        <ele>214.03</ele>
        <time>2018-01-04T14:24:57Z</time>
      </trkpt>
      <trkpt lat="44.4179" lon="4.92959">
        <ele>214.03</ele>
        <time>2018-01-04T14:25:13Z</time>
      </trkpt>
      <trkpt lat="44.41792" lon="4.92968">
        <ele>214.03</ele>
        <time>2018-01-04T14:25:23Z</time>
      </trkpt>
      <trkpt lat="44.41792" lon="4.92973">
        <ele>214.03</ele>
        <time>2018-01-04T14:25:31Z</time>
      </trkpt>
      <trkpt lat="44.41792" lon="4.92974">
        <ele>214.03</ele>
        <time>2018-01-04T14:25:32Z</time>
      </trkpt>
      <trkpt lat="44.41792" lon="4.92988">
        <ele>214.03</ele>
        <time>2018-01-04T14:25:45Z</time>
      </trkpt>
      <trkpt lat="44.41796" lon="4.93016">
        <ele>213.55</ele>
        <time>2018-01-04T14:26:02Z</time>
      </trkpt>
      <trkpt lat="44.41798" lon="4.93036">
        <ele>213.55</ele>
        <time>2018-01-04T14:26:17Z</time>
      </trkpt>
      <trkpt lat="44.41799" lon="4.93041">
        <ele>213.55</ele>
        <time>2018-01-04T14:26:20Z</time>
      </trkpt>
      <trkpt lat="44.41803" lon="4.9306">
        <ele>213.55</ele>
        <time>2018-01-04T14:26:34Z</time>
      </trkpt>
      <trkpt lat="44.41806" lon="4.93075">
        <ele>213.07</ele>
        <time>2018-01-04T14:26:48Z</time>
      </trkpt>
      <trkpt lat="44.41806" lon="4.93079">
        <ele>213.07</ele>
        <time>2018-01-04T14:26:58Z</time>
      </trkpt>
      <trkpt lat="44.41807" lon="4.93085">
        <ele>213.07</ele>
        <time>2018-01-04T14:27:04Z</time>
      </trkpt>
      <trkpt lat="44.41809" lon="4.931">
        <ele>212.59</ele>
        <time>2018-01-04T14:27:16Z</time>
      </trkpt>
      <trkpt lat="44.41809" lon="4.93105">
        <ele>212.59</ele>
        <time>2018-01-04T14:27:21Z</time>
      </trkpt>
      <trkpt lat="44.41809" lon="4.93107">
        <ele>212.59</ele>
        <time>2018-01-04T14:27:22Z</time>
      </trkpt>
      <trkpt lat="44.41813" lon="4.93129">
        <ele>212.59</ele>
        <time>2018-01-04T14:27:39Z</time>
      </trkpt>
      <trkpt lat="44.41816" lon="4.93146">
        <ele>212.59</ele>
        <time>2018-01-04T14:27:51Z</time>
      </trkpt>
      <trkpt lat="44.41819" lon="4.93166">
        <ele>212.59</ele>
        <time>2018-01-04T14:28:06Z</time>
      </trkpt>
      <trkpt lat="44.4182" lon="4.93181">
        <ele>212.59</ele>
        <time>2018-01-04T14:28:18Z</time>
      </trkpt>
      <trkpt lat="44.4182" lon="4.93182">
        <ele>212.59</ele>
        <time>2018-01-04T14:28:19Z</time>
      </trkpt>
      <trkpt lat="44.41822" lon="4.93199">
        <ele>212.59</ele>
        <time>2018-01-04T14:28:32Z</time>
      </trkpt>
      <trkpt lat="44.41823" lon="4.93216">
        <ele>212.59</ele>
        <time>2018-01-04T14:28:45Z</time>
      </trkpt>
      <trkpt lat="44.41826" lon="4.93229">
        <ele>212.59</ele>
        <time>2018-01-04T14:28:56Z</time>
      </trkpt>
      <trkpt lat="44.41827" lon="4.9323">
        <ele>212.59</ele>
        <time>2018-01-04T14:28:57Z</time>
      </trkpt>
      <trkpt lat="44.41827" lon="4.93237">
        <ele>212.11</ele>
        <time>2018-01-04T14:29:02Z</time>
      </trkpt>
      <trkpt lat="44.4183" lon="4.93255">
        <ele>212.11</ele>
        <time>2018-01-04T14:29:14Z</time>
      </trkpt>
      <trkpt lat="44.41832" lon="4.93274">
        <ele>212.11</ele>
        <time>2018-01-04T14:29:29Z</time>
      </trkpt>
      <trkpt lat="44.41834" lon="4.9329">
        <ele>212.11</ele>
        <time>2018-01-04T14:29:41Z</time>
      </trkpt>
      <trkpt lat="44.41836" lon="4.93307">
        <ele>212.11</ele>
        <time>2018-01-04T14:29:55Z</time>
      </trkpt>
      <trkpt lat="44.41838" lon="4.93326">
        <ele>212.11</ele>
        <time>2018-01-04T14:30:08Z</time>
      </trkpt>
      <trkpt lat="44.41839" lon="4.93347">
        <ele>212.11</ele>
        <time>2018-01-04T14:30:23Z</time>
      </trkpt>
      <trkpt lat="44.4184" lon="4.93363">
        <ele>212.11</ele>
        <time>2018-01-04T14:30:37Z</time>
      </trkpt>
      <trkpt lat="44.4184" lon="4.93364">
        <ele>212.11</ele>
        <time>2018-01-04T14:30:41Z</time>
      </trkpt>
      <trkpt lat="44.41837" lon="4.93371">
        <ele>212.11</ele>
        <time>2018-01-04T14:30:54Z</time>
      </trkpt>
      <trkpt lat="44.41833" lon="4.93382">
        <ele>212.11</ele>
        <time>2018-01-04T14:31:06Z</time>
      </trkpt>
      <trkpt lat="44.41828" lon="4.93397">
        <ele>212.11</ele>
        <time>2018-01-04T14:31:18Z</time>
      </trkpt>
      <trkpt lat="44.41818" lon="4.93415">
        <ele>211.63</ele>
        <time>2018-01-04T14:31:33Z</time>
      </trkpt>
      <trkpt lat="44.41804" lon="4.93421">
        <ele>211.15</ele>
        <time>2018-01-04T14:31:47Z</time>
      </trkpt>
      <trkpt lat="44.41792" lon="4.93424">
        <ele>210.19</ele>
        <time>2018-01-04T14:32:01Z</time>
      </trkpt>
      <trkpt lat="44.41779" lon="4.93425">
        <ele>209.22</ele>
        <time>2018-01-04T14:32:14Z</time>
      </trkpt>
      <trkpt lat="44.41765" lon="4.93421">
        <ele>208.74</ele>
        <time>2018-01-04T14:32:26Z</time>
      </trkpt>
      <trkpt lat="44.41757" lon="4.93413">
        <ele>208.74</ele>
        <time>2018-01-04T14:32:35Z</time>
      </trkpt>
      <trkpt lat="44.41755" lon="4.93412">
        <ele>208.26</ele>
        <time>2018-01-04T14:32:36Z</time>
      </trkpt>
      <trkpt lat="44.41748" lon="4.93407">
        <ele>208.26</ele>
        <time>2018-01-04T14:32:46Z</time>
      </trkpt>
      <trkpt lat="44.41738" lon="4.93405">
        <ele>207.78</ele>
        <time>2018-01-04T14:32:58Z</time>
      </trkpt>
      <trkpt lat="44.41721" lon="4.93403">
        <ele>206.82</ele>
        <time>2018-01-04T14:33:16Z</time>
      </trkpt>
      <trkpt lat="44.41716" lon="4.93399">
        <ele>206.34</ele>
        <time>2018-01-04T14:33:23Z</time>
      </trkpt>
      <trkpt lat="44.41714" lon="4.93397">
        <ele>205.86</ele>
        <time>2018-01-04T14:33:37Z</time>
      </trkpt>
      <trkpt lat="44.41713" lon="4.93395">
        <ele>205.86</ele>
        <time>2018-01-04T14:33:53Z</time>
      </trkpt>
      <trkpt lat="44.41713" lon="4.93385">
        <ele>205.86</ele>
        <time>2018-01-04T14:34:04Z</time>
      </trkpt>
      <trkpt lat="44.41712" lon="4.93372">
        <ele>205.86</ele>
        <time>2018-01-04T14:34:13Z</time>
      </trkpt>
      <trkpt lat="44.41707" lon="4.93347">
        <ele>205.38</ele>
        <time>2018-01-04T14:34:33Z</time>
      </trkpt>
      <trkpt lat="44.41704" lon="4.93337">
        <ele>205.38</ele>
        <time>2018-01-04T14:34:41Z</time>
      </trkpt>
      <trkpt lat="44.41704" lon="4.93335">
        <ele>205.38</ele>
        <time>2018-01-04T14:34:42Z</time>
      </trkpt>
      <trkpt lat="44.41698" lon="4.93315">
        <ele>204.9</ele>
        <time>2018-01-04T14:34:56Z</time>
      </trkpt>
      <trkpt lat="44.41691" lon="4.93296">
        <ele>204.9</ele>
        <time>2018-01-04T14:35:10Z</time>
      </trkpt>
      <trkpt lat="44.41681" lon="4.93285">
        <ele>204.9</ele>
        <time>2018-01-04T14:35:23Z</time>
      </trkpt>
      <trkpt lat="44.4168" lon="4.93285">
        <ele>204.9</ele>
        <time>2018-01-04T14:35:24Z</time>
      </trkpt>
      <trkpt lat="44.41679" lon="4.93284">
        <ele>204.9</ele>
        <time>2018-01-04T14:35:25Z</time>
      </trkpt>
      <trkpt lat="44.41678" lon="4.93283">
        <ele>204.9</ele>
        <time>2018-01-04T14:35:26Z</time>
      </trkpt>
      <trkpt lat="44.41669" lon="4.93279">
        <ele>204.9</ele>
        <time>2018-01-04T14:35:36Z</time>
      </trkpt>
      <trkpt lat="44.41665" lon="4.93279">
        <ele>204.42</ele>
        <time>2018-01-04T14:35:41Z</time>
      </trkpt>
      <trkpt lat="44.41663" lon="4.93277">
        <ele>204.42</ele>
        <time>2018-01-04T14:35:48Z</time>
      </trkpt>
      <trkpt lat="44.41661" lon="4.93276">
        <ele>204.42</ele>
        <time>2018-01-04T14:35:49Z</time>
      </trkpt>
      <trkpt lat="44.41652" lon="4.9327">
        <ele>204.42</ele>
        <time>2018-01-04T14:35:55Z</time>
      </trkpt>
      <trkpt lat="44.41649" lon="4.93269">
        <ele>204.42</ele>
        <time>2018-01-04T14:35:58Z</time>
      </trkpt>
      <trkpt lat="44.41646" lon="4.93268">
        <ele>204.42</ele>
        <time>2018-01-04T14:36:03Z</time>
      </trkpt>
      <trkpt lat="44.41645" lon="4.93268">
        <ele>204.42</ele>
        <time>2018-01-04T14:36:04Z</time>
      </trkpt>
      <trkpt lat="44.41641" lon="4.93264">
        <ele>204.42</ele>
        <time>2018-01-04T14:36:09Z</time>
      </trkpt>
      <trkpt lat="44.41639" lon="4.93252">
        <ele>204.42</ele>
        <time>2018-01-04T14:36:22Z</time>
      </trkpt>
      <trkpt lat="44.41634" lon="4.93224">
        <ele>204.42</ele>
        <time>2018-01-04T14:36:41Z</time>
      </trkpt>
      <trkpt lat="44.41634" lon="4.93223">
        <ele>204.42</ele>
        <time>2018-01-04T14:36:42Z</time>
      </trkpt>
      <trkpt lat="44.41634" lon="4.93221">
        <ele>204.42</ele>
        <time>2018-01-04T14:36:43Z</time>
      </trkpt>
      <trkpt lat="44.41633" lon="4.9322">
        <ele>204.42</ele>
        <time>2018-01-04T14:36:44Z</time>
      </trkpt>
      <trkpt lat="44.41633" lon="4.93219">
        <ele>204.42</ele>
        <time>2018-01-04T14:36:45Z</time>
      </trkpt>
      <trkpt lat="44.41633" lon="4.93217">
        <ele>204.42</ele>
        <time>2018-01-04T14:36:46Z</time>
      </trkpt>
      <trkpt lat="44.41633" lon="4.9321">
        <ele>204.42</ele>
        <time>2018-01-04T14:36:53Z</time>
      </trkpt>
      <trkpt lat="44.41632" lon="4.93208">
        <ele>204.42</ele>
        <time>2018-01-04T14:36:54Z</time>
      </trkpt>
      <trkpt lat="44.41632" lon="4.93206">
        <ele>204.42</ele>
        <time>2018-01-04T14:36:55Z</time>
      </trkpt>
      <trkpt lat="44.41632" lon="4.93205">
        <ele>204.42</ele>
        <time>2018-01-04T14:36:56Z</time>
      </trkpt>
      <trkpt lat="44.41632" lon="4.93203">
        <ele>204.42</ele>
        <time>2018-01-04T14:36:57Z</time>
      </trkpt>
      <trkpt lat="44.41631" lon="4.93194">
        <ele>204.42</ele>
        <time>2018-01-04T14:37:05Z</time>
      </trkpt>
      <trkpt lat="44.41631" lon="4.93192">
        <ele>204.42</ele>
        <time>2018-01-04T14:37:06Z</time>
      </trkpt>
      <trkpt lat="44.4163" lon="4.9319">
        <ele>204.42</ele>
        <time>2018-01-04T14:37:07Z</time>
      </trkpt>
      <trkpt lat="44.4163" lon="4.9317">
        <ele>204.42</ele>
        <time>2018-01-04T14:37:19Z</time>
      </trkpt>
      <trkpt lat="44.41628" lon="4.93143">
        <ele>204.42</ele>
        <time>2018-01-04T14:37:34Z</time>
      </trkpt>
      <trkpt lat="44.41627" lon="4.93123">
        <ele>204.42</ele>
        <time>2018-01-04T14:37:48Z</time>
      </trkpt>
      <trkpt lat="44.41627" lon="4.93121">
        <ele>203.94</ele>
        <time>2018-01-04T14:37:49Z</time>
      </trkpt>
      <trkpt lat="44.41627" lon="4.93105">
        <ele>203.94</ele>
        <time>2018-01-04T14:38:02Z</time>
      </trkpt>
      <trkpt lat="44.41628" lon="4.93096">
        <ele>204.42</ele>
        <time>2018-01-04T14:38:09Z</time>
      </trkpt>
      <trkpt lat="44.41628" lon="4.93094">
        <ele>204.42</ele>
        <time>2018-01-04T14:38:10Z</time>
      </trkpt>
      <trkpt lat="44.41627" lon="4.93092">
        <ele>204.42</ele>
        <time>2018-01-04T14:38:11Z</time>
      </trkpt>
      <trkpt lat="44.41627" lon="4.9309">
        <ele>204.42</ele>
        <time>2018-01-04T14:38:12Z</time>
      </trkpt>
      <trkpt lat="44.41627" lon="4.93089">
        <ele>203.94</ele>
        <time>2018-01-04T14:38:13Z</time>
      </trkpt>
      <trkpt lat="44.41626" lon="4.9308">
        <ele>203.94</ele>
        <time>2018-01-04T14:38:19Z</time>
      </trkpt>
      <trkpt lat="44.41626" lon="4.93078">
        <ele>203.94</ele>
        <time>2018-01-04T14:38:21Z</time>
      </trkpt>
      <trkpt lat="44.41626" lon="4.93074">
        <ele>203.94</ele>
        <time>2018-01-04T14:38:23Z</time>
      </trkpt>
      <trkpt lat="44.41626" lon="4.93072">
        <ele>203.94</ele>
        <time>2018-01-04T14:38:24Z</time>
      </trkpt>
      <trkpt lat="44.41625" lon="4.9307">
        <ele>203.94</ele>
        <time>2018-01-04T14:38:25Z</time>
      </trkpt>
      <trkpt lat="44.41625" lon="4.93058">
        <ele>203.94</ele>
        <time>2018-01-04T14:38:34Z</time>
      </trkpt>
      <trkpt lat="44.41624" lon="4.93049">
        <ele>203.94</ele>
        <time>2018-01-04T14:38:45Z</time>
      </trkpt>
      <trkpt lat="44.41624" lon="4.93032">
        <ele>203.94</ele>
        <time>2018-01-04T14:38:58Z</time>
      </trkpt>
      <trkpt lat="44.41624" lon="4.93015">
        <ele>203.94</ele>
        <time>2018-01-04T14:39:11Z</time>
      </trkpt>
      <trkpt lat="44.41624" lon="4.92996">
        <ele>203.94</ele>
        <time>2018-01-04T14:39:24Z</time>
      </trkpt>
      <trkpt lat="44.41623" lon="4.92961">
        <ele>203.94</ele>
        <time>2018-01-04T14:39:47Z</time>
      </trkpt>
      <trkpt lat="44.41623" lon="4.92943">
        <ele>203.94</ele>
        <time>2018-01-04T14:40:01Z</time>
      </trkpt>
      <trkpt lat="44.41622" lon="4.92927">
        <ele>203.94</ele>
        <time>2018-01-04T14:40:12Z</time>
      </trkpt>
      <trkpt lat="44.41617" lon="4.92918">
        <ele>204.9</ele>
        <time>2018-01-04T14:40:21Z</time>
      </trkpt>
      <trkpt lat="44.4161" lon="4.92917">
        <ele>204.9</ele>
        <time>2018-01-04T14:40:31Z</time>
      </trkpt>
      <trkpt lat="44.41609" lon="4.92918">
        <ele>204.9</ele>
        <time>2018-01-04T14:40:32Z</time>
      </trkpt>
      <trkpt lat="44.41607" lon="4.92918">
        <ele>203.46</ele>
        <time>2018-01-04T14:40:33Z</time>
      </trkpt>
      <trkpt lat="44.41599" lon="4.92919">
        <ele>203.46</ele>
        <time>2018-01-04T14:40:44Z</time>
      </trkpt>
      <trkpt lat="44.41581" lon="4.9292">
        <ele>202.49</ele>
        <time>2018-01-04T14:41:00Z</time>
      </trkpt>
      <trkpt lat="44.41568" lon="4.92918">
        <ele>201.53</ele>
        <time>2018-01-04T14:41:13Z</time>
      </trkpt>
      <trkpt lat="44.41567" lon="4.92918">
        <ele>201.53</ele>
        <time>2018-01-04T14:41:16Z</time>
      </trkpt>
      <trkpt lat="44.41554" lon="4.92907">
        <ele>200.09</ele>
        <time>2018-01-04T14:41:30Z</time>
      </trkpt>
      <trkpt lat="44.4154" lon="4.92899">
        <ele>200.09</ele>
        <time>2018-01-04T14:41:44Z</time>
      </trkpt>
      <trkpt lat="44.41529" lon="4.92892">
        <ele>199.61</ele>
        <time>2018-01-04T14:41:58Z</time>
      </trkpt>
      <trkpt lat="44.41514" lon="4.92881">
        <ele>199.61</ele>
        <time>2018-01-04T14:42:13Z</time>
      </trkpt>
      <trkpt lat="44.41502" lon="4.92872">
        <ele>199.61</ele>
        <time>2018-01-04T14:42:27Z</time>
      </trkpt>
      <trkpt lat="44.41489" lon="4.92862">
        <ele>201.53</ele>
        <time>2018-01-04T14:42:41Z</time>
      </trkpt>
      <trkpt lat="44.41475" lon="4.92856">
        <ele>202.01</ele>
        <time>2018-01-04T14:42:55Z</time>
      </trkpt>
      <trkpt lat="44.41473" lon="4.92856">
        <ele>202.01</ele>
        <time>2018-01-04T14:42:57Z</time>
      </trkpt>
      <trkpt lat="44.41463" lon="4.9286">
        <ele>202.98</ele>
        <time>2018-01-04T14:43:07Z</time>
      </trkpt>
      <trkpt lat="44.41448" lon="4.92866">
        <ele>203.94</ele>
        <time>2018-01-04T14:43:23Z</time>
      </trkpt>
      <trkpt lat="44.41433" lon="4.92871">
        <ele>205.38</ele>
        <time>2018-01-04T14:43:38Z</time>
      </trkpt>
      <trkpt lat="44.41421" lon="4.92868">
        <ele>207.78</ele>
        <time>2018-01-04T14:43:54Z</time>
      </trkpt>
      <trkpt lat="44.41418" lon="4.92867">
        <ele>208.26</ele>
        <time>2018-01-04T14:44:02Z</time>
      </trkpt>
      <trkpt lat="44.41406" lon="4.92866">
        <ele>210.67</ele>
        <time>2018-01-04T14:44:16Z</time>
      </trkpt>
      <trkpt lat="44.41401" lon="4.92866">
        <ele>210.67</ele>
        <time>2018-01-04T14:44:21Z</time>
      </trkpt>
      <trkpt lat="44.41396" lon="4.92866">
        <ele>211.63</ele>
        <time>2018-01-04T14:44:26Z</time>
      </trkpt>
      <trkpt lat="44.41391" lon="4.92865">
        <ele>212.59</ele>
        <time>2018-01-04T14:44:31Z</time>
      </trkpt>
      <trkpt lat="44.41381" lon="4.92863">
        <ele>213.55</ele>
        <time>2018-01-04T14:44:40Z</time>
      </trkpt>
      <trkpt lat="44.41378" lon="4.92861">
        <ele>213.55</ele>
        <time>2018-01-04T14:44:44Z</time>
      </trkpt>
      <trkpt lat="44.41369" lon="4.92854">
        <ele>214.03</ele>
        <time>2018-01-04T14:44:58Z</time>
      </trkpt>
      <trkpt lat="44.41369" lon="4.92856">
        <ele>214.03</ele>
        <time>2018-01-04T14:45:10Z</time>
      </trkpt>
      <trkpt lat="44.41369" lon="4.92856">
        <ele>214.51</ele>
        <time>2018-01-04T14:45:30Z</time>
      </trkpt>
      <trkpt lat="44.41369" lon="4.92855">
        <ele>214.51</ele>
        <time>2018-01-04T14:45:52Z</time>
      </trkpt>
      <trkpt lat="44.41367" lon="4.92851">
        <ele>214.51</ele>
        <time>2018-01-04T14:46:12Z</time>
      </trkpt>
      <trkpt lat="44.41365" lon="4.92847">
        <ele>214.51</ele>
        <time>2018-01-04T14:46:37Z</time>
      </trkpt>
      <trkpt lat="44.41355" lon="4.92835">
        <ele>214.51</ele>
        <time>2018-01-04T14:46:51Z</time>
      </trkpt>
      <trkpt lat="44.4135" lon="4.9282">
        <ele>214.51</ele>
        <time>2018-01-04T14:47:03Z</time>
      </trkpt>
      <trkpt lat="44.41349" lon="4.92817">
        <ele>213.07</ele>
        <time>2018-01-04T14:47:06Z</time>
      </trkpt>
      <trkpt lat="44.41347" lon="4.92804">
        <ele>213.07</ele>
        <time>2018-01-04T14:47:18Z</time>
      </trkpt>
      <trkpt lat="44.41348" lon="4.92786">
        <ele>212.59</ele>
        <time>2018-01-04T14:47:31Z</time>
      </trkpt>
      <trkpt lat="44.41352" lon="4.92771">
        <ele>212.59</ele>
        <time>2018-01-04T14:47:43Z</time>
      </trkpt>
      <trkpt lat="44.41361" lon="4.92754">
        <ele>212.59</ele>
        <time>2018-01-04T14:48:00Z</time>
      </trkpt>
      <trkpt lat="44.41361" lon="4.92751">
        <ele>212.59</ele>
        <time>2018-01-04T14:48:02Z</time>
      </trkpt>
      <trkpt lat="44.4136" lon="4.9273">
        <ele>212.59</ele>
        <time>2018-01-04T14:48:17Z</time>
      </trkpt>
      <trkpt lat="44.41356" lon="4.92702">
        <ele>212.59</ele>
        <time>2018-01-04T14:48:34Z</time>
      </trkpt>
      <trkpt lat="44.41351" lon="4.92671">
        <ele>212.11</ele>
        <time>2018-01-04T14:48:54Z</time>
      </trkpt>
      <trkpt lat="44.41346" lon="4.9265">
        <ele>212.11</ele>
        <time>2018-01-04T14:49:10Z</time>
      </trkpt>
      <trkpt lat="44.41343" lon="4.92634">
        <ele>212.11</ele>
        <time>2018-01-04T14:49:22Z</time>
      </trkpt>
      <trkpt lat="44.41342" lon="4.92632">
        <ele>212.11</ele>
        <time>2018-01-04T14:49:24Z</time>
      </trkpt>
      <trkpt lat="44.41336" lon="4.92609">
        <ele>211.63</ele>
        <time>2018-01-04T14:49:39Z</time>
      </trkpt>
      <trkpt lat="44.41333" lon="4.92598">
        <ele>211.63</ele>
        <time>2018-01-04T14:49:46Z</time>
      </trkpt>
      <trkpt lat="44.41327" lon="4.9258">
        <ele>211.63</ele>
        <time>2018-01-04T14:49:59Z</time>
      </trkpt>
      <trkpt lat="44.41321" lon="4.92565">
        <ele>211.63</ele>
        <time>2018-01-04T14:50:12Z</time>
      </trkpt>
      <trkpt lat="44.41321" lon="4.92564">
        <ele>211.63</ele>
        <time>2018-01-04T14:50:13Z</time>
      </trkpt>
      <trkpt lat="44.41311" lon="4.92541">
        <ele>211.63</ele>
        <time>2018-01-04T14:50:30Z</time>
      </trkpt>
      <trkpt lat="44.41305" lon="4.92518">
        <ele>211.15</ele>
        <time>2018-01-04T14:50:46Z</time>
      </trkpt>
      <trkpt lat="44.413" lon="4.92506">
        <ele>211.15</ele>
        <time>2018-01-04T14:50:56Z</time>
      </trkpt>
      <trkpt lat="44.41299" lon="4.92504">
        <ele>211.15</ele>
        <time>2018-01-04T14:50:58Z</time>
      </trkpt>
      <trkpt lat="44.41294" lon="4.92482">
        <ele>211.15</ele>
        <time>2018-01-04T14:51:13Z</time>
      </trkpt>
      <trkpt lat="44.41292" lon="4.92461">
        <ele>210.67</ele>
        <time>2018-01-04T14:51:27Z</time>
      </trkpt>
      <trkpt lat="44.41289" lon="4.92441">
        <ele>210.67</ele>
        <time>2018-01-04T14:51:42Z</time>
      </trkpt>
      <trkpt lat="44.41284" lon="4.92424">
        <ele>210.67</ele>
        <time>2018-01-04T14:51:56Z</time>
      </trkpt>
      <trkpt lat="44.41277" lon="4.92403">
        <ele>210.67</ele>
        <time>2018-01-04T14:52:10Z</time>
      </trkpt>
      <trkpt lat="44.41271" lon="4.92389">
        <ele>210.19</ele>
        <time>2018-01-04T14:52:23Z</time>
      </trkpt>
      <trkpt lat="44.41262" lon="4.92374">
        <ele>210.19</ele>
        <time>2018-01-04T14:52:36Z</time>
      </trkpt>
      <trkpt lat="44.41254" lon="4.92358">
        <ele>209.7</ele>
        <time>2018-01-04T14:52:50Z</time>
      </trkpt>
      <trkpt lat="44.41244" lon="4.92331">
        <ele>209.22</ele>
        <time>2018-01-04T14:53:07Z</time>
      </trkpt>
      <trkpt lat="44.41239" lon="4.92317">
        <ele>208.74</ele>
        <time>2018-01-04T14:53:17Z</time>
      </trkpt>
      <trkpt lat="44.41234" lon="4.92289">
        <ele>208.26</ele>
        <time>2018-01-04T14:53:37Z</time>
      </trkpt>
      <trkpt lat="44.41231" lon="4.92269">
        <ele>208.26</ele>
        <time>2018-01-04T14:53:51Z</time>
      </trkpt>
      <trkpt lat="44.41227" lon="4.92251">
        <ele>208.26</ele>
        <time>2018-01-04T14:54:04Z</time>
      </trkpt>
      <trkpt lat="44.41223" lon="4.92228">
        <ele>207.78</ele>
        <time>2018-01-04T14:54:21Z</time>
      </trkpt>
      <trkpt lat="44.4122" lon="4.92208">
        <ele>207.78</ele>
        <time>2018-01-04T14:54:35Z</time>
      </trkpt>
      <trkpt lat="44.41217" lon="4.92195">
        <ele>207.78</ele>
        <time>2018-01-04T14:54:49Z</time>
      </trkpt>
      <trkpt lat="44.41215" lon="4.92188">
        <ele>207.78</ele>
        <time>2018-01-04T14:54:59Z</time>
      </trkpt>
      <trkpt lat="44.4121" lon="4.92171">
        <ele>207.78</ele>
        <time>2018-01-04T14:55:13Z</time>
      </trkpt>
      <trkpt lat="44.4121" lon="4.92169">
        <ele>207.78</ele>
        <time>2018-01-04T14:55:14Z</time>
      </trkpt>
      <trkpt lat="44.4121" lon="4.92152">
        <ele>207.78</ele>
        <time>2018-01-04T14:55:28Z</time>
      </trkpt>
      <trkpt lat="44.41211" lon="4.92127">
        <ele>207.78</ele>
        <time>2018-01-04T14:55:42Z</time>
      </trkpt>
      <trkpt lat="44.41211" lon="4.92107">
        <ele>207.3</ele>
        <time>2018-01-04T14:55:56Z</time>
      </trkpt>
      <trkpt lat="44.41213" lon="4.92086">
        <ele>207.3</ele>
        <time>2018-01-04T14:56:11Z</time>
      </trkpt>
      <trkpt lat="44.41217" lon="4.92065">
        <ele>206.82</ele>
        <time>2018-01-04T14:56:26Z</time>
      </trkpt>
      <trkpt lat="44.41225" lon="4.92044">
        <ele>206.82</ele>
        <time>2018-01-04T14:56:40Z</time>
      </trkpt>
      <trkpt lat="44.41229" lon="4.92034">
        <ele>206.82</ele>
        <time>2018-01-04T14:56:51Z</time>
      </trkpt>
      <trkpt lat="44.41231" lon="4.92031">
        <ele>206.82</ele>
        <time>2018-01-04T14:56:55Z</time>
      </trkpt>
      <trkpt lat="44.41233" lon="4.92015">
        <ele>206.34</ele>
        <time>2018-01-04T14:57:09Z</time>
      </trkpt>
      <trkpt lat="44.41239" lon="4.92007">
        <ele>206.34</ele>
        <time>2018-01-04T14:57:21Z</time>
      </trkpt>
      <trkpt lat="44.41239" lon="4.92004">
        <ele>205.86</ele>
        <time>2018-01-04T14:57:48Z</time>
      </trkpt>
      <trkpt lat="44.4124" lon="4.92004">
        <ele>205.86</ele>
        <time>2018-01-04T14:58:18Z</time>
      </trkpt>
      <trkpt lat="44.4124" lon="4.92008">
        <ele>205.86</ele>
        <time>2018-01-04T14:58:45Z</time>
      </trkpt>
      <trkpt lat="44.4124" lon="4.92007">
        <ele>205.86</ele>
        <time>2018-01-04T14:59:13Z</time>
      </trkpt>
      <trkpt lat="44.4124" lon="4.9201">
        <ele>207.3</ele>
        <time>2018-01-04T14:59:30Z</time>
      </trkpt>
      <trkpt lat="44.41239" lon="4.92008">
        <ele>207.3</ele>
        <time>2018-01-04T15:00:03Z</time>
      </trkpt>
      <trkpt lat="44.41241" lon="4.92007">
        <ele>207.3</ele>
        <time>2018-01-04T15:00:35Z</time>
      </trkpt>
      <trkpt lat="44.41235" lon="4.92009">
        <ele>207.3</ele>
        <time>2018-01-04T15:00:51Z</time>
      </trkpt>
      <trkpt lat="44.41232" lon="4.92006">
        <ele>207.3</ele>
        <time>2018-01-04T15:01:05Z</time>
      </trkpt>
      <trkpt lat="44.41232" lon="4.92004">
        <ele>207.3</ele>
        <time>2018-01-04T15:01:21Z</time>
      </trkpt>
      <trkpt lat="44.41234" lon="4.92007">
        <ele>207.3</ele>
        <time>2018-01-04T15:01:41Z</time>
      </trkpt>
      <trkpt lat="44.41235" lon="4.92008">
        <ele>207.3</ele>
        <time>2018-01-04T15:01:55Z</time>
      </trkpt>
      <trkpt lat="44.41237" lon="4.92006">
        <ele>207.3</ele>
        <time>2018-01-04T15:02:12Z</time>
      </trkpt>
      <trkpt lat="44.41231" lon="4.92005">
        <ele>207.3</ele>
        <time>2018-01-04T15:02:27Z</time>
      </trkpt>
      <trkpt lat="44.41231" lon="4.92004">
        <ele>207.3</ele>
        <time>2018-01-04T15:02:40Z</time>
      </trkpt>
      <trkpt lat="44.41229" lon="4.92004">
        <ele>207.3</ele>
        <time>2018-01-04T15:02:57Z</time>
      </trkpt>
      <trkpt lat="44.4123" lon="4.92007">
        <ele>207.3</ele>
        <time>2018-01-04T15:03:16Z</time>
      </trkpt>
      <trkpt lat="44.41233" lon="4.92003">
        <ele>207.3</ele>
        <time>2018-01-04T15:03:32Z</time>
      </trkpt>
      <trkpt lat="44.41235" lon="4.92005">
        <ele>207.3</ele>
        <time>2018-01-04T15:03:52Z</time>
      </trkpt>
      <trkpt lat="44.41238" lon="4.92007">
        <ele>206.82</ele>
        <time>2018-01-04T15:04:13Z</time>
      </trkpt>
      <trkpt lat="44.4124" lon="4.92007">
        <ele>206.82</ele>
        <time>2018-01-04T15:04:33Z</time>
      </trkpt>
      <trkpt lat="44.4124" lon="4.92007">
        <ele>206.82</ele>
        <time>2018-01-04T15:04:55Z</time>
      </trkpt>
      <trkpt lat="44.41239" lon="4.92003">
        <ele>206.82</ele>
        <time>2018-01-04T15:05:21Z</time>
      </trkpt>
      <trkpt lat="44.4124" lon="4.92008">
        <ele>206.82</ele>
        <time>2018-01-04T15:05:52Z</time>
      </trkpt>
      <trkpt lat="44.41239" lon="4.92008">
        <ele>206.82</ele>
        <time>2018-01-04T15:06:13Z</time>
      </trkpt>
      <trkpt lat="44.41239" lon="4.92007">
        <ele>206.82</ele>
        <time>2018-01-04T15:06:32Z</time>
      </trkpt>
      <trkpt lat="44.41239" lon="4.92006">
        <ele>206.82</ele>
        <time>2018-01-04T15:06:54Z</time>
      </trkpt>
      <trkpt lat="44.41239" lon="4.92007">
        <ele>206.82</ele>
        <time>2018-01-04T15:07:25Z</time>
      </trkpt>
      <trkpt lat="44.41239" lon="4.92006">
        <ele>206.82</ele>
        <time>2018-01-04T15:07:40Z</time>
      </trkpt>
      <trkpt lat="44.4124" lon="4.92006">
        <ele>206.82</ele>
        <time>2018-01-04T15:08:03Z</time>
      </trkpt>
      <trkpt lat="44.4124" lon="4.92007">
        <ele>206.82</ele>
        <time>2018-01-04T15:08:30Z</time>
      </trkpt>
      <trkpt lat="44.41239" lon="4.92007">
        <ele>206.82</ele>
        <time>2018-01-04T15:08:59Z</time>
      </trkpt>
      <trkpt lat="44.41238" lon="4.92006">
        <ele>206.82</ele>
        <time>2018-01-04T15:09:08Z</time>
      </trkpt>
      <trkpt lat="44.41238" lon="4.91999">
        <ele>206.82</ele>
        <time>2018-01-04T15:09:25Z</time>
      </trkpt>
      <trkpt lat="44.41243" lon="4.91983">
        <ele>206.82</ele>
        <time>2018-01-04T15:09:40Z</time>
      </trkpt>
      <trkpt lat="44.41248" lon="4.91971">
        <ele>206.34</ele>
        <time>2018-01-04T15:09:53Z</time>
      </trkpt>
      <trkpt lat="44.41254" lon="4.91951">
        <ele>205.38</ele>
        <time>2018-01-04T15:10:10Z</time>
      </trkpt>
      <trkpt lat="44.41259" lon="4.91931">
        <ele>204.42</ele>
        <time>2018-01-04T15:10:27Z</time>
      </trkpt>
      <trkpt lat="44.41266" lon="4.91911">
        <ele>202.98</ele>
        <time>2018-01-04T15:10:46Z</time>
      </trkpt>
      <trkpt lat="44.4127" lon="4.919">
        <ele>202.49</ele>
        <time>2018-01-04T15:10:55Z</time>
      </trkpt>
      <trkpt lat="44.41276" lon="4.91876">
        <ele>201.05</ele>
        <time>2018-01-04T15:11:14Z</time>
      </trkpt>
      <trkpt lat="44.41278" lon="4.91871">
        <ele>200.57</ele>
        <time>2018-01-04T15:11:21Z</time>
      </trkpt>
      <trkpt lat="44.4128" lon="4.91866">
        <ele>200.09</ele>
        <time>2018-01-04T15:11:25Z</time>
      </trkpt>
      <trkpt lat="44.41291" lon="4.91842">
        <ele>198.17</ele>
        <time>2018-01-04T15:11:45Z</time>
      </trkpt>
      <trkpt lat="44.41304" lon="4.91825">
        <ele>197.21</ele>
        <time>2018-01-04T15:12:02Z</time>
      </trkpt>
      <trkpt lat="44.41317" lon="4.91814">
        <ele>195.77</ele>
        <time>2018-01-04T15:12:19Z</time>
      </trkpt>
      <trkpt lat="44.41329" lon="4.9181">
        <ele>195.28</ele>
        <time>2018-01-04T15:12:33Z</time>
      </trkpt>
      <trkpt lat="44.41347" lon="4.91796">
        <ele>194.8</ele>
        <time>2018-01-04T15:12:49Z</time>
      </trkpt>
      <trkpt lat="44.41364" lon="4.91768">
        <ele>194.8</ele>
        <time>2018-01-04T15:13:09Z</time>
      </trkpt>
      <trkpt lat="44.41378" lon="4.91743">
        <ele>193.84</ele>
        <time>2018-01-04T15:13:28Z</time>
      </trkpt>
      <trkpt lat="44.41385" lon="4.91747">
        <ele>193.84</ele>
        <time>2018-01-04T15:13:40Z</time>
      </trkpt>
      <trkpt lat="44.41387" lon="4.9175">
        <ele>193.84</ele>
        <time>2018-01-04T15:13:50Z</time>
      </trkpt>
      <trkpt lat="44.41395" lon="4.91763">
        <ele>195.28</ele>
        <time>2018-01-04T15:14:01Z</time>
      </trkpt>
      <trkpt lat="44.41401" lon="4.91774">
        <ele>195.77</ele>
        <time>2018-01-04T15:14:18Z</time>
      </trkpt>
      <trkpt lat="44.414" lon="4.91775">
        <ele>196.25</ele>
        <time>2018-01-04T15:14:37Z</time>
      </trkpt>
      <trkpt lat="44.41413" lon="4.91799">
        <ele>197.69</ele>
        <time>2018-01-04T15:14:54Z</time>
      </trkpt>
      <trkpt lat="44.41422" lon="4.91806">
        <ele>198.17</ele>
        <time>2018-01-04T15:15:06Z</time>
      </trkpt>
      <trkpt lat="44.4143" lon="4.91798">
        <ele>198.65</ele>
        <time>2018-01-04T15:15:18Z</time>
      </trkpt>
      <trkpt lat="44.41437" lon="4.91782">
        <ele>199.13</ele>
        <time>2018-01-04T15:15:35Z</time>
      </trkpt>
      <trkpt lat="44.41438" lon="4.91778">
        <ele>199.13</ele>
        <time>2018-01-04T15:15:38Z</time>
      </trkpt>
      <trkpt lat="44.41444" lon="4.91758">
        <ele>200.09</ele>
        <time>2018-01-04T15:15:56Z</time>
      </trkpt>
      <trkpt lat="44.41447" lon="4.9174">
        <ele>201.05</ele>
        <time>2018-01-04T15:16:11Z</time>
      </trkpt>
      <trkpt lat="44.41448" lon="4.91737">
        <ele>201.53</ele>
        <time>2018-01-04T15:16:14Z</time>
      </trkpt>
      <trkpt lat="44.41451" lon="4.91728">
        <ele>201.53</ele>
        <time>2018-01-04T15:16:21Z</time>
      </trkpt>
      <trkpt lat="44.41467" lon="4.91714">
        <ele>202.01</ele>
        <time>2018-01-04T15:16:39Z</time>
      </trkpt>
      <trkpt lat="44.41483" lon="4.91705">
        <ele>202.49</ele>
        <time>2018-01-04T15:16:55Z</time>
      </trkpt>
      <trkpt lat="44.415" lon="4.91692">
        <ele>203.94</ele>
        <time>2018-01-04T15:17:12Z</time>
      </trkpt>
      <trkpt lat="44.41515" lon="4.9168">
        <ele>205.38</ele>
        <time>2018-01-04T15:17:28Z</time>
      </trkpt>
      <trkpt lat="44.41527" lon="4.91668">
        <ele>206.34</ele>
        <time>2018-01-04T15:17:43Z</time>
      </trkpt>
      <trkpt lat="44.4154" lon="4.91651">
        <ele>206.82</ele>
        <time>2018-01-04T15:17:59Z</time>
      </trkpt>
      <trkpt lat="44.41556" lon="4.9163">
        <ele>207.3</ele>
        <time>2018-01-04T15:18:17Z</time>
      </trkpt>
      <trkpt lat="44.4157" lon="4.91616">
        <ele>207.3</ele>
        <time>2018-01-04T15:18:32Z</time>
      </trkpt>
      <trkpt lat="44.41579" lon="4.916">
        <ele>207.3</ele>
        <time>2018-01-04T15:18:47Z</time>
      </trkpt>
      <trkpt lat="44.41589" lon="4.91583">
        <ele>205.86</ele>
        <time>2018-01-04T15:19:04Z</time>
      </trkpt>
      <trkpt lat="44.41594" lon="4.91568">
        <ele>205.38</ele>
        <time>2018-01-04T15:19:17Z</time>
      </trkpt>
      <trkpt lat="44.416" lon="4.9155">
        <ele>204.9</ele>
        <time>2018-01-04T15:19:32Z</time>
      </trkpt>
      <trkpt lat="44.41603" lon="4.91525">
        <ele>203.46</ele>
        <time>2018-01-04T15:19:49Z</time>
      </trkpt>
      <trkpt lat="44.41603" lon="4.91507">
        <ele>201.05</ele>
        <time>2018-01-04T15:20:05Z</time>
      </trkpt>
      <trkpt lat="44.41598" lon="4.91488">
        <ele>198.17</ele>
        <time>2018-01-04T15:20:22Z</time>
      </trkpt>
      <trkpt lat="44.41598" lon="4.91471">
        <ele>195.77</ele>
        <time>2018-01-04T15:20:40Z</time>
      </trkpt>
      <trkpt lat="44.41598" lon="4.9146">
        <ele>195.28</ele>
        <time>2018-01-04T15:20:49Z</time>
      </trkpt>
      <trkpt lat="44.41603" lon="4.91439">
        <ele>192.88</ele>
        <time>2018-01-04T15:21:06Z</time>
      </trkpt>
      <trkpt lat="44.41604" lon="4.91418">
        <ele>190.48</ele>
        <time>2018-01-04T15:21:23Z</time>
      </trkpt>
      <trkpt lat="44.41604" lon="4.91398">
        <ele>187.59</ele>
        <time>2018-01-04T15:21:38Z</time>
      </trkpt>
      <trkpt lat="44.41606" lon="4.91382">
        <ele>187.11</ele>
        <time>2018-01-04T15:21:54Z</time>
      </trkpt>
      <trkpt lat="44.41609" lon="4.91363">
        <ele>187.11</ele>
        <time>2018-01-04T15:22:10Z</time>
      </trkpt>
      <trkpt lat="44.41611" lon="4.91335">
        <ele>187.11</ele>
        <time>2018-01-04T15:22:26Z</time>
      </trkpt>
      <trkpt lat="44.41614" lon="4.91311">
        <ele>187.11</ele>
        <time>2018-01-04T15:22:41Z</time>
      </trkpt>
      <trkpt lat="44.41616" lon="4.91287">
        <ele>187.11</ele>
        <time>2018-01-04T15:22:58Z</time>
      </trkpt>
      <trkpt lat="44.41616" lon="4.91285">
        <ele>187.11</ele>
        <time>2018-01-04T15:23:00Z</time>
      </trkpt>
      <trkpt lat="44.41618" lon="4.91261">
        <ele>187.11</ele>
        <time>2018-01-04T15:23:18Z</time>
      </trkpt>
      <trkpt lat="44.41618" lon="4.91231">
        <ele>186.63</ele>
        <time>2018-01-04T15:23:35Z</time>
      </trkpt>
      <trkpt lat="44.41623" lon="4.91206">
        <ele>186.63</ele>
        <time>2018-01-04T15:23:53Z</time>
      </trkpt>
      <trkpt lat="44.41631" lon="4.91185">
        <ele>186.15</ele>
        <time>2018-01-04T15:24:09Z</time>
      </trkpt>
      <trkpt lat="44.41632" lon="4.91182">
        <ele>186.15</ele>
        <time>2018-01-04T15:24:11Z</time>
      </trkpt>
      <trkpt lat="44.41642" lon="4.9116">
        <ele>186.15</ele>
        <time>2018-01-04T15:24:27Z</time>
      </trkpt>
      <trkpt lat="44.41652" lon="4.91138">
        <ele>186.15</ele>
        <time>2018-01-04T15:24:43Z</time>
      </trkpt>
      <trkpt lat="44.41661" lon="4.91121">
        <ele>187.59</ele>
        <time>2018-01-04T15:24:56Z</time>
      </trkpt>
      <trkpt lat="44.41671" lon="4.91106">
        <ele>187.59</ele>
        <time>2018-01-04T15:25:10Z</time>
      </trkpt>
      <trkpt lat="44.41679" lon="4.91089">
        <ele>188.08</ele>
        <time>2018-01-04T15:25:24Z</time>
      </trkpt>
      <trkpt lat="44.41686" lon="4.91075">
        <ele>188.56</ele>
        <time>2018-01-04T15:25:36Z</time>
      </trkpt>
      <trkpt lat="44.41695" lon="4.9106">
        <ele>189.04</ele>
        <time>2018-01-04T15:25:50Z</time>
      </trkpt>
      <trkpt lat="44.41699" lon="4.91056">
        <ele>188.56</ele>
        <time>2018-01-04T15:25:54Z</time>
      </trkpt>
      <trkpt lat="44.41716" lon="4.91052">
        <ele>189.04</ele>
        <time>2018-01-04T15:26:11Z</time>
      </trkpt>
      <trkpt lat="44.41728" lon="4.9105">
        <ele>190</ele>
        <time>2018-01-04T15:26:24Z</time>
      </trkpt>
      <trkpt lat="44.41744" lon="4.91047">
        <ele>190</ele>
        <time>2018-01-04T15:26:40Z</time>
      </trkpt>
      <trkpt lat="44.41757" lon="4.91046">
        <ele>190.48</ele>
        <time>2018-01-04T15:26:54Z</time>
      </trkpt>
      <trkpt lat="44.41772" lon="4.91044">
        <ele>190.96</ele>
        <time>2018-01-04T15:27:09Z</time>
      </trkpt>
      <trkpt lat="44.41784" lon="4.91044">
        <ele>191.44</ele>
        <time>2018-01-04T15:27:21Z</time>
      </trkpt>
      <trkpt lat="44.41797" lon="4.91044">
        <ele>191.44</ele>
        <time>2018-01-04T15:27:33Z</time>
      </trkpt>
      <trkpt lat="44.41798" lon="4.91043">
        <ele>191.92</ele>
        <time>2018-01-04T15:27:35Z</time>
      </trkpt>
      <trkpt lat="44.41814" lon="4.91041">
        <ele>192.4</ele>
        <time>2018-01-04T15:27:51Z</time>
      </trkpt>
      <trkpt lat="44.41816" lon="4.9104">
        <ele>192.4</ele>
        <time>2018-01-04T15:27:54Z</time>
      </trkpt>
      <trkpt lat="44.41834" lon="4.91038">
        <ele>192.4</ele>
        <time>2018-01-04T15:28:10Z</time>
      </trkpt>
      <trkpt lat="44.41845" lon="4.91039">
        <ele>192.4</ele>
        <time>2018-01-04T15:28:23Z</time>
      </trkpt>
      <trkpt lat="44.4186" lon="4.91039">
        <ele>192.4</ele>
        <time>2018-01-04T15:28:37Z</time>
      </trkpt>
      <trkpt lat="44.41861" lon="4.91039">
        <ele>192.4</ele>
        <time>2018-01-04T15:28:38Z</time>
      </trkpt>
      <trkpt lat="44.41867" lon="4.91039">
        <ele>192.4</ele>
        <time>2018-01-04T15:28:45Z</time>
      </trkpt>
      <trkpt lat="44.4187" lon="4.9104">
        <ele>192.88</ele>
        <time>2018-01-04T15:28:48Z</time>
      </trkpt>
      <trkpt lat="44.41884" lon="4.91036">
        <ele>193.36</ele>
        <time>2018-01-04T15:29:01Z</time>
      </trkpt>
      <trkpt lat="44.41897" lon="4.91032">
        <ele>193.36</ele>
        <time>2018-01-04T15:29:16Z</time>
      </trkpt>
      <trkpt lat="44.41911" lon="4.9103">
        <ele>193.36</ele>
        <time>2018-01-04T15:29:29Z</time>
      </trkpt>
      <trkpt lat="44.41924" lon="4.91028">
        <ele>193.36</ele>
        <time>2018-01-04T15:29:43Z</time>
      </trkpt>
      <trkpt lat="44.41937" lon="4.91027">
        <ele>193.36</ele>
        <time>2018-01-04T15:29:56Z</time>
      </trkpt>
      <trkpt lat="44.4194" lon="4.91027">
        <ele>193.36</ele>
        <time>2018-01-04T15:30:00Z</time>
      </trkpt>
      <trkpt lat="44.41952" lon="4.91033">
        <ele>193.36</ele>
        <time>2018-01-04T15:30:14Z</time>
      </trkpt>
      <trkpt lat="44.41961" lon="4.91049">
        <ele>193.84</ele>
        <time>2018-01-04T15:30:30Z</time>
      </trkpt>
      <trkpt lat="44.4196" lon="4.91045">
        <ele>193.84</ele>
        <time>2018-01-04T15:31:00Z</time>
      </trkpt>
      <trkpt lat="44.4196" lon="4.91051">
        <ele>194.8</ele>
        <time>2018-01-04T15:31:24Z</time>
      </trkpt>
      <trkpt lat="44.41958" lon="4.9105">
        <ele>194.8</ele>
        <time>2018-01-04T15:31:59Z</time>
      </trkpt>
      <trkpt lat="44.41958" lon="4.91051">
        <ele>194.8</ele>
        <time>2018-01-04T15:32:30Z</time>
      </trkpt>
    </trkseg>
  </trk>
</gpx>